Observation data for Boys Ranch on 05/16/2018      Previous  Date  Next       Current Mesonet Observations  Soil Data  Daily Summary Page  Observations in Plain Language
KBY1 160500Z 08005KT 18/10 A3006 RMK A01 T01820103  RH  060%=      5-min Rain = 0
KBY1 160501Z 08004KT 18/10 A3006 RMK A01 T01810103  RH  060%=      5-min Rain = 0
KBY1 160502Z 07005KT 18/10 A3006 RMK A01 T01800104  RH  061%=      5-min Rain = 0
KBY1 160503Z 08004KT 18/10 A3006 RMK A01 T01800104  RH  061%=      5-min Rain = 0
KBY1 160504Z 08004KT 18/10 A3006 RMK A01 T01790103  RH  061%=      5-min Rain = 0
KBY1 160505Z 08004KT 18/10 A3006 RMK A01 T01780104  RH  062%=      5-min Rain = 0
KBY1 160506Z 07005KT 18/10 A3006 RMK A01 T01780104  RH  062%=      5-min Rain = 0
KBY1 160507Z 07004KT 18/10 A3006 RMK A01 T01780104  RH  062%=      5-min Rain = 0
KBY1 160508Z 07005KT 18/10 A3006 RMK A01 T01780104  RH  062%=      5-min Rain = 0
KBY1 160509Z 05004KT 18/11 A3006 RMK A01 T01780105  RH  062%=      5-min Rain = 0
KBY1 160510Z 07004KT 18/10 A3006 RMK A01 T01780104  RH  062%=      5-min Rain = 0
KBY1 160511Z 07004KT 18/10 A3006 RMK A01 T01780104  RH  062%=      5-min Rain = 0
KBY1 160512Z 06004KT 18/10 A3005 RMK A01 T01780104  RH  062%=      5-min Rain = 0
KBY1 160513Z 06004KT 18/10 A3005 RMK A01 T01770104  RH  062%=      5-min Rain = 0
KBY1 160514Z 07003KT 18/10 A3005 RMK A01 T01770104  RH  062%=      5-min Rain = 0
KBY1 160515Z 06002KT 18/10 A3005 RMK A01 T01770104  RH  062%=      5-min Rain = 0
KBY1 160516Z 06003KT 18/11 A3005 RMK A01 T01770105  RH  063%=      5-min Rain = 0
KBY1 160517Z 06004KT 18/11 A3006 RMK A01 T01770105  RH  063%=      5-min Rain = 0
KBY1 160518Z 04004KT 18/11 A3006 RMK A01 T01760105  RH  063%=      5-min Rain = 0
KBY1 160519Z 07002KT 18/11 A3006 RMK A01 T01760106  RH  063%=      5-min Rain = 0
KBY1 160520Z 09001KT 18/11 A3006 RMK A01 T01760105  RH  063%=      5-min Rain = 0
KBY1 160521Z 09001KT 18/11 A3006 RMK A01 T01760105  RH  063%=      5-min Rain = 0
KBY1 160522Z 08002KT 18/11 A3006 RMK A01 T01760105  RH  063%=      5-min Rain = 0
KBY1 160523Z 08003KT 18/11 A3006 RMK A01 T01750105  RH  063%=      5-min Rain = 0
KBY1 160524Z 09004KT 18/11 A3006 RMK A01 T01750106  RH  064%=      5-min Rain = 0
KBY1 160525Z 05006KT 18/11 A3006 RMK A01 T01760107  RH  064%=      5-min Rain = 0
KBY1 160526Z 06004KT 18/11 A3006 RMK A01 T01760107  RH  064%=      5-min Rain = 0
KBY1 160527Z 04002KT 18/11 A3005 RMK A01 T01760107  RH  064%=      5-min Rain = 0
KBY1 160528Z 04003KT 18/11 A3005 RMK A01 T01760106  RH  064%=      5-min Rain = 0
KBY1 160529Z 05002KT 18/11 A3005 RMK A01 T01760106  RH  064%=      5-min Rain = 0
KBY1 160530Z 05002KT 18/11 A3005 RMK A01 T01750107  RH  064%=      5-min Rain = 0
KBY1 160531Z 04002KT 18/11 A3005 RMK A01 T01750107  RH  064%=      5-min Rain = 0
KBY1 160532Z 05001KT 18/11 A3005 RMK A01 T01750107  RH  064%=      5-min Rain = 0
KBY1 160533Z 04000KT 17/11 A3005 RMK A01 T01740106  RH  065%=      5-min Rain = 0
KBY1 160534Z 04001KT 17/11 A3005 RMK A01 T01730107  RH  065%=      5-min Rain = 0
KBY1 160535Z 02001KT 17/11 A3006 RMK A01 T01730107  RH  065%=      5-min Rain = 0
KBY1 160536Z 08002KT 17/11 A3006 RMK A01 T01730107  RH  065%=      5-min Rain = 0
KBY1 160537Z 14001KT 17/11 A3006 RMK A01 T01730107  RH  065%=      5-min Rain = 0
KBY1 160538Z 15001KT 17/11 A3006 RMK A01 T01720106  RH  065%=      5-min Rain = 0
KBY1 160539Z 16000KT 17/11 A3006 RMK A01 T01710105  RH  065%=      5-min Rain = 0
KBY1 160540Z 00000KT 17/11 A3006 RMK A01 T01700105  RH  065%=      5-min Rain = 0
KBY1 160541Z 00000KT 17/11 A3006 RMK A01 T01700105  RH  066%=      5-min Rain = 0
KBY1 160542Z 00000KT 17/11 A3006 RMK A01 T01690106  RH  066%=      5-min Rain = 0
KBY1 160543Z 00000KT 17/11 A3006 RMK A01 T01690106  RH  066%=      5-min Rain = 0
KBY1 160544Z 00000KT 17/11 A3006 RMK A01 T01690106  RH  066%=      5-min Rain = 0
KBY1 160545Z 00000KT 17/11 A3006 RMK A01 T01690106  RH  067%=      5-min Rain = 0
KBY1 160546Z 00000KT 17/11 A3006 RMK A01 T01680107  RH  067%=      5-min Rain = 0
KBY1 160547Z 00000KT 17/11 A3006 RMK A01 T01680107  RH  067%=      5-min Rain = 0
KBY1 160548Z 09000KT 17/11 A3006 RMK A01 T01680106  RH  067%=      5-min Rain = 0
KBY1 160549Z 12000KT 17/11 A3006 RMK A01 T01680107  RH  067%=      5-min Rain = 0
KBY1 160550Z 00000KT 17/11 A3006 RMK A01 T01670106  RH  067%=      5-min Rain = 0
KBY1 160551Z 00000KT 17/11 A3006 RMK A01 T01660107  RH  068%=      5-min Rain = 0
KBY1 160552Z 00000KT 17/11 A3006 RMK A01 T01660107  RH  068%=      5-min Rain = 0
KBY1 160553Z 00000KT 17/11 A3006 RMK A01 T01660107  RH  068%=      5-min Rain = 0
KBY1 160554Z 25000KT 17/11 A3006 RMK A01 T01660107  RH  068%=      5-min Rain = 0
KBY1 160555Z 23002KT 17/11 A3006 RMK A01 T01670108  RH  068%=      5-min Rain = 0
KBY1 160556Z 20002KT 17/11 A3006 RMK A01 T01680107  RH  067%=      5-min Rain = 0
KBY1 160557Z 18001KT 17/11 A3006 RMK A01 T01680106  RH  067%=      5-min Rain = 0
KBY1 160558Z 19001KT 17/11 A3006 RMK A01 T01670106  RH  067%=      5-min Rain = 0
KBY1 160559Z 20002KT 17/11 A3006 RMK A01 T01650106  RH  068%=      5-min Rain = 0
KBY1 160600Z 19003KT 16/11 A3006 RMK A01 T01640105  RH  068%=      5-min Rain = 0
KBY1 160601Z 19003KT 16/11 A3006 RMK A01 T01620105  RH  069%=      5-min Rain = 0
KBY1 160602Z 17003KT 16/10 A3006 RMK A01 T01600104  RH  069%=      5-min Rain = 0
KBY1 160603Z 16003KT 16/10 A3006 RMK A01 T01580104  RH  070%=      5-min Rain = 0
KBY1 160604Z 16002KT 16/10 A3006 RMK A01 T01570103  RH  070%=      5-min Rain = 0
KBY1 160605Z 11001KT 16/10 A3006 RMK A01 T01560103  RH  071%=      5-min Rain = 0
KBY1 160606Z 10001KT 16/10 A3006 RMK A01 T01550103  RH  071%=      5-min Rain = 0
KBY1 160607Z 09001KT 16/10 A3006 RMK A01 T01550104  RH  071%=      5-min Rain = 0
KBY1 160608Z 09002KT 16/10 A3006 RMK A01 T01560104  RH  071%=      5-min Rain = 0
KBY1 160609Z 09004KT 16/10 A3006 RMK A01 T01560104  RH  071%=      5-min Rain = 0
KBY1 160610Z 08004KT 16/10 A3006 RMK A01 T01570104  RH  071%=      5-min Rain = 0
KBY1 160611Z 07005KT 16/11 A3006 RMK A01 T01570105  RH  071%=      5-min Rain = 0
KBY1 160612Z 09005KT 16/11 A3007 RMK A01 T01590107  RH  071%=      5-min Rain = 0
KBY1 160613Z 09004KT 16/11 A3007 RMK A01 T01610107  RH  070%=      5-min Rain = 0
KBY1 160614Z 08003KT 16/11 A3007 RMK A01 T01620107  RH  070%=      5-min Rain = 0
KBY1 160615Z 09002KT 16/11 A3007 RMK A01 T01620108  RH  070%=      5-min Rain = 0
KBY1 160616Z 10002KT 16/11 A3007 RMK A01 T01620108  RH  070%=      5-min Rain = 0
KBY1 160617Z 09003KT 16/11 A3007 RMK A01 T01630108  RH  070%=      5-min Rain = 0
KBY1 160618Z 11003KT 16/11 A3006 RMK A01 T01630107  RH  069%=      5-min Rain = 0
KBY1 160619Z 12002KT 16/11 A3006 RMK A01 T01630106  RH  069%=      5-min Rain = 0
KBY1 160620Z 10001KT 16/11 A3006 RMK A01 T01630106  RH  069%=      5-min Rain = 0
KBY1 160621Z 08001KT 16/11 A3006 RMK A01 T01630106  RH  069%=      5-min Rain = 0
KBY1 160622Z 07002KT 16/11 A3006 RMK A01 T01630106  RH  069%=      5-min Rain = 0
KBY1 160623Z 08001KT 16/11 A3006 RMK A01 T01630106  RH  069%=      5-min Rain = 0
KBY1 160624Z 09001KT 16/11 A3006 RMK A01 T01640106  RH  069%=      5-min Rain = 0
KBY1 160625Z 07000KT 16/11 A3006 RMK A01 T01640107  RH  069%=      5-min Rain = 0
KBY1 160626Z 05001KT 16/11 A3006 RMK A01 T01640107  RH  069%=      5-min Rain = 0
KBY1 160627Z 03001KT 16/11 A3006 RMK A01 T01640107  RH  069%=      5-min Rain = 0
KBY1 160628Z 05001KT 16/11 A3006 RMK A01 T01640107  RH  069%=      5-min Rain = 0
KBY1 160629Z 08001KT 16/11 A3006 RMK A01 T01640106  RH  069%=      5-min Rain = 0
KBY1 160630Z 09000KT 16/11 A3007 RMK A01 T01640106  RH  068%=      5-min Rain = 0
KBY1 160631Z 08000KT 16/11 A3007 RMK A01 T01640106  RH  068%=      5-min Rain = 0
KBY1 160632Z 00000KT 16/11 A3007 RMK A01 T01640106  RH  068%=      5-min Rain = 0
KBY1 160633Z 00000KT 17/11 A3007 RMK A01 T01650106  RH  068%=      5-min Rain = 0
KBY1 160634Z 00000KT 17/11 A3007 RMK A01 T01650106  RH  068%=      5-min Rain = 0
KBY1 160635Z 00000KT 17/11 A3007 RMK A01 T01650106  RH  068%=      5-min Rain = 0
KBY1 160636Z 13000KT 17/11 A3007 RMK A01 T01650106  RH  068%=      5-min Rain = 0
KBY1 160637Z 11001KT 17/11 A3007 RMK A01 T01650106  RH  068%=      5-min Rain = 0
KBY1 160638Z 11001KT 17/11 A3007 RMK A01 T01650106  RH  068%=      5-min Rain = 0
KBY1 160639Z 16000KT 17/11 A3007 RMK A01 T01650106  RH  068%=      5-min Rain = 0
KBY1 160640Z 00000KT 17/11 A3007 RMK A01 T01650106  RH  068%=      5-min Rain = 0
KBY1 160641Z 00000KT 17/11 A3007 RMK A01 T01650106  RH  068%=      5-min Rain = 0
KBY1 160642Z 00000KT 16/11 A3007 RMK A01 T01640106  RH  068%=      5-min Rain = 0
KBY1 160643Z 00000KT 16/11 A3008 RMK A01 T01630105  RH  068%=      5-min Rain = 0
KBY1 160644Z 00000KT 16/11 A3008 RMK A01 T01640106  RH  069%=      5-min Rain = 0
KBY1 160645Z 19000KT 16/11 A3008 RMK A01 T01630106  RH  069%=      5-min Rain = 0
KBY1 160646Z 18001KT 16/11 A3008 RMK A01 T01630106  RH  069%=      5-min Rain = 0
KBY1 160647Z 17001KT 16/11 A3008 RMK A01 T01620106  RH  069%=      5-min Rain = 0
KBY1 160648Z 17001KT 16/11 A3008 RMK A01 T01630106  RH  069%=      5-min Rain = 0
KBY1 160649Z 16000KT 16/11 A3008 RMK A01 T01620106  RH  069%=      5-min Rain = 0
KBY1 160650Z 00000KT 16/11 A3008 RMK A01 T01620106  RH  069%=      5-min Rain = 0
KBY1 160651Z 00000KT 16/11 A3008 RMK A01 T01620106  RH  069%=      5-min Rain = 0
KBY1 160652Z 00000KT 16/11 A3008 RMK A01 T01620106  RH  069%=      5-min Rain = 0
KBY1 160653Z 00000KT 16/11 A3008 RMK A01 T01620106  RH  069%=      5-min Rain = 0
KBY1 160654Z 00000KT 16/11 A3008 RMK A01 T01620106  RH  069%=      5-min Rain = 0
KBY1 160655Z 00000KT 16/11 A3008 RMK A01 T01610105  RH  069%=      5-min Rain = 0
KBY1 160656Z 00000KT 16/11 A3008 RMK A01 T01610106  RH  070%=      5-min Rain = 0
KBY1 160657Z 00000KT 16/11 A3008 RMK A01 T01600106  RH  070%=      5-min Rain = 0
KBY1 160658Z 00000KT 16/11 A3008 RMK A01 T01600106  RH  070%=      5-min Rain = 0
KBY1 160659Z 00000KT 16/11 A3008 RMK A01 T01600106  RH  070%=      5-min Rain = 0
KBY1 160700Z 00000KT 16/11 A3008 RMK A01 T01600106  RH  070%=      5-min Rain = 0
KBY1 160701Z 00000KT 16/11 A3008 RMK A01 T01610106  RH  070%=      5-min Rain = 0
KBY1 160702Z 00000KT 16/11 A3008 RMK A01 T01610106  RH  070%=      5-min Rain = 0
KBY1 160703Z 00000KT 16/11 A3008 RMK A01 T01610106  RH  070%=      5-min Rain = 0
KBY1 160704Z 00000KT 16/11 A3009 RMK A01 T01610106  RH  070%=      5-min Rain = 0
KBY1 160705Z 00000KT 16/11 A3009 RMK A01 T01610106  RH  070%=      5-min Rain = 0
KBY1 160706Z 00000KT 16/11 A3009 RMK A01 T01610106  RH  070%=      5-min Rain = 0
KBY1 160707Z 00000KT 16/11 A3009 RMK A01 T01610107  RH  070%=      5-min Rain = 0
KBY1 160708Z 00000KT 16/11 A3009 RMK A01 T01610107  RH  070%=      5-min Rain = 0
KBY1 160709Z 00000KT 16/11 A3009 RMK A01 T01610107  RH  070%=      5-min Rain = 0
KBY1 160710Z 12001KT 16/11 A3009 RMK A01 T01610106  RH  070%=      5-min Rain = 0
KBY1 160711Z 10002KT 16/11 A3009 RMK A01 T01620106  RH  070%=      5-min Rain = 0
KBY1 160712Z 10002KT 16/11 A3009 RMK A01 T01620107  RH  070%=      5-min Rain = 0
KBY1 160713Z 10002KT 16/11 A3009 RMK A01 T01630107  RH  070%=      5-min Rain = 0
KBY1 160714Z 09002KT 16/11 A3009 RMK A01 T01630107  RH  070%=      5-min Rain = 0
KBY1 160715Z 10001KT 16/11 A3009 RMK A01 T01620107  RH  070%=      5-min Rain = 0
KBY1 160716Z 12001KT 16/11 A3009 RMK A01 T01630108  RH  070%=      5-min Rain = 0
KBY1 160717Z 13002KT 16/11 A3009 RMK A01 T01630108  RH  070%=      5-min Rain = 0
KBY1 160718Z 12002KT 16/11 A3009 RMK A01 T01620107  RH  070%=      5-min Rain = 0
KBY1 160719Z 12002KT 16/11 A3009 RMK A01 T01610107  RH  070%=      5-min Rain = 0
KBY1 160720Z 11002KT 16/11 A3009 RMK A01 T01610108  RH  071%=      5-min Rain = 0
KBY1 160721Z 10002KT 16/11 A3009 RMK A01 T01600108  RH  071%=      5-min Rain = 0
KBY1 160722Z 10002KT 16/11 A3009 RMK A01 T01590107  RH  071%=      5-min Rain = 0
KBY1 160723Z 09002KT 16/11 A3009 RMK A01 T01600108  RH  071%=      5-min Rain = 0
KBY1 160724Z 10003KT 16/11 A3009 RMK A01 T01600109  RH  072%=      5-min Rain = 0
KBY1 160725Z 10003KT 16/11 A3009 RMK A01 T01600109  RH  072%=      5-min Rain = 0
KBY1 160726Z 09003KT 16/11 A3009 RMK A01 T01600109  RH  072%=      5-min Rain = 0
KBY1 160727Z 08002KT 16/11 A3009 RMK A01 T01600110  RH  072%=      5-min Rain = 0
KBY1 160728Z 08002KT 16/11 A3009 RMK A01 T01610110  RH  072%=      5-min Rain = 0
KBY1 160729Z 08002KT 16/11 A301 RMK A01 T01610110  RH  072%=      5-min Rain = 0
KBY1 160730Z 08002KT 16/11 A3009 RMK A01 T01610110  RH  071%=      5-min Rain = 0
KBY1 160731Z 08002KT 16/11 A3009 RMK A01 T01610110  RH  071%=      5-min Rain = 0
KBY1 160732Z 08002KT 16/11 A3009 RMK A01 T01610110  RH  072%=      5-min Rain = 0
KBY1 160733Z 08002KT 16/11 A3009 RMK A01 T01610110  RH  072%=      5-min Rain = 0
KBY1 160734Z 09002KT 16/11 A3009 RMK A01 T01610110  RH  072%=      5-min Rain = 0
KBY1 160735Z 08003KT 16/11 A3009 RMK A01 T01610110  RH  071%=      5-min Rain = 0
KBY1 160736Z 07003KT 16/11 A3009 RMK A01 T01610110  RH  072%=      5-min Rain = 0
KBY1 160737Z 07004KT 16/11 A3009 RMK A01 T01610110  RH  072%=      5-min Rain = 0
KBY1 160738Z 07004KT 16/11 A3009 RMK A01 T01600110  RH  072%=      5-min Rain = 0
KBY1 160739Z 06004KT 16/11 A301 RMK A01 T01610110  RH  072%=      5-min Rain = 0
KBY1 160740Z 07005KT 16/11 A301 RMK A01 T01620110  RH  072%=      5-min Rain = 0
KBY1 160741Z 06004KT 16/11 A301 RMK A01 T01630111  RH  071%=      5-min Rain = 0
KBY1 160742Z 06004KT 16/11 A301 RMK A01 T01630111  RH  071%=      5-min Rain = 0
KBY1 160743Z 06004KT 16/11 A3009 RMK A01 T01630111  RH  071%=      5-min Rain = 0
KBY1 160744Z 06003KT 16/11 A3009 RMK A01 T01640112  RH  071%=      5-min Rain = 0
KBY1 160745Z 07004KT 16/11 A3009 RMK A01 T01640112  RH  071%=      5-min Rain = 0
KBY1 160746Z 06004KT 16/11 A3009 RMK A01 T01640112  RH  071%=      5-min Rain = 0
KBY1 160747Z 08005KT 16/11 A3009 RMK A01 T01640112  RH  071%=      5-min Rain = 0
KBY1 160748Z 07005KT 16/11 A3009 RMK A01 T01640112  RH  071%=      5-min Rain = 0
KBY1 160749Z 07005KT 16/11 A3008 RMK A01 T01640113  RH  071%=      5-min Rain = 0
KBY1 160750Z 05006KT 16/11 A3008 RMK A01 T01640113  RH  072%=      5-min Rain = 0
KBY1 160751Z 05008KT 16/11 A3008 RMK A01 T01640113  RH  072%=      5-min Rain = 0
KBY1 160752Z 05009KT 16/11 A3007 RMK A01 T01630113  RH  072%=      5-min Rain = 0
KBY1 160753Z 04007KT 16/11 A3007 RMK A01 T01630113  RH  072%=      5-min Rain = 0
KBY1 160754Z 03008KT 16/11 A3007 RMK A01 T01630113  RH  072%=      5-min Rain = 0
KBY1 160755Z 03007KT 16/11 A3008 RMK A01 T01630113  RH  072%=      5-min Rain = 0
KBY1 160756Z 03006KT 16/11 A3008 RMK A01 T01640114  RH  072%=      5-min Rain = 0
KBY1 160757Z 03005KT 16/11 A3008 RMK A01 T01630113  RH  072%=      5-min Rain = 0
KBY1 160758Z 05004KT 16/11 A3008 RMK A01 T01630113  RH  072%=      5-min Rain = 0
KBY1 160759Z 06004KT 16/11 A3008 RMK A01 T01630114  RH  072%=      5-min Rain = 0
KBY1 160800Z 08003KT 16/11 A3008 RMK A01 T01630114  RH  073%=      5-min Rain = 0
KBY1 160801Z 08003KT 16/11 A3009 RMK A01 T01630114  RH  073%=      5-min Rain = 0
KBY1 160802Z 07003KT 16/11 A3009 RMK A01 T01620113  RH  073%=      5-min Rain = 0
KBY1 160803Z 07003KT 16/11 A3009 RMK A01 T01610114  RH  073%=      5-min Rain = 0
KBY1 160804Z 05002KT 16/11 A3009 RMK A01 T01610114  RH  073%=      5-min Rain = 0
KBY1 160805Z 04002KT 16/11 A3009 RMK A01 T01610113  RH  073%=      5-min Rain = 0
KBY1 160806Z 06002KT 16/11 A3009 RMK A01 T01600113  RH  074%=      5-min Rain = 0
KBY1 160807Z 06001KT 16/11 A3009 RMK A01 T01600113  RH  074%=      5-min Rain = 0
KBY1 160808Z 07000KT 16/11 A3009 RMK A01 T01590113  RH  074%=      5-min Rain = 0
KBY1 160809Z 13001KT 16/11 A3009 RMK A01 T01590113  RH  074%=      5-min Rain = 0
KBY1 160810Z 14002KT 16/11 A3009 RMK A01 T01590113  RH  074%=      5-min Rain = 0
KBY1 160811Z 15002KT 16/11 A3009 RMK A01 T01590113  RH  074%=      5-min Rain = 0
KBY1 160812Z 14003KT 16/11 A3009 RMK A01 T01580112  RH  074%=      5-min Rain = 0
KBY1 160813Z 14003KT 16/11 A3009 RMK A01 T01560111  RH  075%=      5-min Rain = 0
KBY1 160814Z 15003KT 16/11 A3009 RMK A01 T01550112  RH  076%=      5-min Rain = 0
KBY1 160815Z 15003KT 15/11 A3009 RMK A01 T01540112  RH  076%=      5-min Rain = 0
KBY1 160816Z 15003KT 15/11 A3009 RMK A01 T01530113  RH  077%=      5-min Rain = 0
KBY1 160817Z 15003KT 15/11 A3009 RMK A01 T01530112  RH  077%=      5-min Rain = 0
KBY1 160818Z 17003KT 15/11 A3009 RMK A01 T01530112  RH  077%=      5-min Rain = 0
KBY1 160819Z 17003KT 15/11 A3009 RMK A01 T01520111  RH  077%=      5-min Rain = 0
KBY1 160820Z 17003KT 15/11 A3009 RMK A01 T01510110  RH  077%=      5-min Rain = 0
KBY1 160821Z 15002KT 15/11 A301 RMK A01 T01490110  RH  078%=      5-min Rain = 0
KBY1 160822Z 14002KT 15/11 A301 RMK A01 T01490111  RH  078%=      5-min Rain = 0
KBY1 160823Z 13002KT 15/11 A301 RMK A01 T01490112  RH  079%=      5-min Rain = 0
KBY1 160824Z 12002KT 15/11 A3009 RMK A01 T01490113  RH  079%=      5-min Rain = 0
KBY1 160825Z 12002KT 15/11 A3009 RMK A01 T01490113  RH  079%=      5-min Rain = 0
KBY1 160826Z 12002KT 15/11 A3009 RMK A01 T01500113  RH  079%=      5-min Rain = 0
KBY1 160827Z 13002KT 15/11 A3009 RMK A01 T01510114  RH  079%=      5-min Rain = 0
KBY1 160828Z 13002KT 15/11 A3009 RMK A01 T01510114  RH  078%=      5-min Rain = 0
KBY1 160829Z 12002KT 15/11 A3009 RMK A01 T01520114  RH  078%=      5-min Rain = 0
KBY1 160830Z 13002KT 15/11 A3008 RMK A01 T01520114  RH  078%=      5-min Rain = 0
KBY1 160831Z 13002KT 15/11 A3008 RMK A01 T01530113  RH  077%=      5-min Rain = 0
KBY1 160832Z 12002KT 15/11 A3008 RMK A01 T01530113  RH  077%=      5-min Rain = 0
KBY1 160833Z 13001KT 15/11 A3008 RMK A01 T01530113  RH  077%=      5-min Rain = 0
KBY1 160834Z 14000KT 15/11 A3008 RMK A01 T01530113  RH  077%=      5-min Rain = 0
KBY1 160835Z 11000KT 15/11 A3008 RMK A01 T01520112  RH  077%=      5-min Rain = 0
KBY1 160836Z 04001KT 15/11 A3008 RMK A01 T01520112  RH  077%=      5-min Rain = 0
KBY1 160837Z 04002KT 15/11 A3008 RMK A01 T01520112  RH  077%=      5-min Rain = 0
KBY1 160838Z 04002KT 15/11 A3008 RMK A01 T01510112  RH  077%=      5-min Rain = 0
KBY1 160839Z 04003KT 15/11 A3008 RMK A01 T01520112  RH  077%=      5-min Rain = 0
KBY1 160840Z 04003KT 15/11 A3008 RMK A01 T01510112  RH  077%=      5-min Rain = 0
KBY1 160841Z 03003KT 15/11 A3008 RMK A01 T01510112  RH  077%=      5-min Rain = 0
KBY1 160842Z 03003KT 15/11 A3008 RMK A01 T01510112  RH  077%=      5-min Rain = 0
KBY1 160843Z 02003KT 15/11 A3008 RMK A01 T01510112  RH  077%=      5-min Rain = 0
KBY1 160844Z 02002KT 15/11 A3008 RMK A01 T01510112  RH  077%=      5-min Rain = 0
KBY1 160845Z 03002KT 15/11 A3009 RMK A01 T01520113  RH  077%=      5-min Rain = 0
KBY1 160846Z 02002KT 15/11 A3008 RMK A01 T01520113  RH  077%=      5-min Rain = 0
KBY1 160847Z 02003KT 15/11 A3008 RMK A01 T01530113  RH  077%=      5-min Rain = 0
KBY1 160848Z 01004KT 15/11 A3008 RMK A01 T01530113  RH  077%=      5-min Rain = 0
KBY1 160849Z 01004KT 15/11 A3008 RMK A01 T01520113  RH  077%=      5-min Rain = 0
KBY1 160850Z 01004KT 15/11 A3008 RMK A01 T01510113  RH  078%=      5-min Rain = 0
KBY1 160851Z 01004KT 15/11 A3008 RMK A01 T01510113  RH  078%=      5-min Rain = 0
KBY1 160852Z 02004KT 15/11 A3008 RMK A01 T01510113  RH  078%=      5-min Rain = 0
KBY1 160853Z 02004KT 15/11 A3008 RMK A01 T01510113  RH  078%=      5-min Rain = 0
KBY1 160854Z 02004KT 15/11 A3008 RMK A01 T01510113  RH  078%=      5-min Rain = 0
KBY1 160855Z 02004KT 15/11 A3008 RMK A01 T01510113  RH  078%=      5-min Rain = 0
KBY1 160856Z 01005KT 15/11 A3008 RMK A01 T01500113  RH  078%=      5-min Rain = 0
KBY1 160857Z 02006KT 15/11 A3008 RMK A01 T01500113  RH  079%=      5-min Rain = 0
KBY1 160858Z 02006KT 15/11 A3008 RMK A01 T01500114  RH  079%=      5-min Rain = 0
KBY1 160859Z 02006KT 15/11 A3008 RMK A01 T01500114  RH  079%=      5-min Rain = 0
KBY1 160900Z 02005KT 15/11 A3008 RMK A01 T01510114  RH  079%=      5-min Rain = 0
KBY1 160901Z 02005KT 15/12 A3008 RMK A01 T01510115  RH  079%=      5-min Rain = 0
KBY1 160902Z 02004KT 15/12 A3008 RMK A01 T01520115  RH  079%=      5-min Rain = 0
KBY1 160903Z 02004KT 15/12 A3008 RMK A01 T01530115  RH  078%=      5-min Rain = 0
KBY1 160904Z 02005KT 15/12 A3008 RMK A01 T01530115  RH  078%=      5-min Rain = 0
KBY1 160905Z 02005KT 15/12 A3008 RMK A01 T01530115  RH  078%=      5-min Rain = 0
KBY1 160906Z 02004KT 15/12 A3007 RMK A01 T01530115  RH  078%=      5-min Rain = 0
KBY1 160907Z 03004KT 15/12 A3007 RMK A01 T01530115  RH  078%=      5-min Rain = 0
KBY1 160908Z 03004KT 15/12 A3007 RMK A01 T01530115  RH  078%=      5-min Rain = 0
KBY1 160909Z 03004KT 15/12 A3008 RMK A01 T01530115  RH  078%=      5-min Rain = 0
KBY1 160910Z 03004KT 15/12 A3008 RMK A01 T01530115  RH  078%=      5-min Rain = 0
KBY1 160911Z 03004KT 15/12 A3007 RMK A01 T01520115  RH  078%=      5-min Rain = 0
KBY1 160912Z 03003KT 15/12 A3008 RMK A01 T01510115  RH  079%=      5-min Rain = 0
KBY1 160913Z 04002KT 15/12 A3008 RMK A01 T01510115  RH  079%=      5-min Rain = 0
KBY1 160914Z 04001KT 15/11 A3008 RMK A01 T01510114  RH  079%=      5-min Rain = 0
KBY1 160915Z 03001KT 15/11 A3007 RMK A01 T01500114  RH  079%=      5-min Rain = 0
KBY1 160916Z 03001KT 15/11 A3007 RMK A01 T01500114  RH  079%=      5-min Rain = 0
KBY1 160917Z 02002KT 15/11 A3007 RMK A01 T01500114  RH  079%=      5-min Rain = 0
KBY1 160918Z 03002KT 15/11 A3007 RMK A01 T01490114  RH  079%=      5-min Rain = 0
KBY1 160919Z 03002KT 15/11 A3007 RMK A01 T01490114  RH  079%=      5-min Rain = 0
KBY1 160920Z 04001KT 15/11 A3007 RMK A01 T01490114  RH  080%=      5-min Rain = 0
KBY1 160921Z 04000KT 15/11 A3007 RMK A01 T01490114  RH  080%=      5-min Rain = 0
KBY1 160922Z 00000KT 15/11 A3007 RMK A01 T01480113  RH  079%=      5-min Rain = 0
KBY1 160923Z 00000KT 15/11 A3007 RMK A01 T01470111  RH  079%=      5-min Rain = 0
KBY1 160924Z 00000KT 15/11 A3006 RMK A01 T01450111  RH  080%=      5-min Rain = 0
KBY1 160925Z 00000KT 14/11 A3006 RMK A01 T01440111  RH  080%=      5-min Rain = 0
KBY1 160926Z 18000KT 14/11 A3006 RMK A01 T01420109  RH  080%=      5-min Rain = 0
KBY1 160927Z 20001KT 14/11 A3006 RMK A01 T01410108  RH  081%=      5-min Rain = 0
KBY1 160928Z 21001KT 14/11 A3006 RMK A01 T01390107  RH  081%=      5-min Rain = 0
KBY1 160929Z 23001KT 14/11 A3006 RMK A01 T01380107  RH  082%=      5-min Rain = 0
KBY1 160930Z 23001KT 14/11 A3006 RMK A01 T01380108  RH  082%=      5-min Rain = 0
KBY1 160931Z 23001KT 14/11 A3006 RMK A01 T01380109  RH  083%=      5-min Rain = 0
KBY1 160932Z 23001KT 14/11 A3006 RMK A01 T01370108  RH  083%=      5-min Rain = 0
KBY1 160933Z 24001KT 14/11 A3006 RMK A01 T01370108  RH  083%=      5-min Rain = 0
KBY1 160934Z 26001KT 14/11 A3006 RMK A01 T01370109  RH  083%=      5-min Rain = 0
KBY1 160935Z 29001KT 14/11 A3006 RMK A01 T01370110  RH  084%=      5-min Rain = 0
KBY1 160936Z 32001KT 14/11 A3006 RMK A01 T01370109  RH  083%=      5-min Rain = 0
KBY1 160937Z 35001KT 14/11 A3006 RMK A01 T01370108  RH  083%=      5-min Rain = 0
KBY1 160938Z 35001KT 14/11 A3006 RMK A01 T01370110  RH  084%=      5-min Rain = 0
KBY1 160939Z 00001KT 14/11 A3006 RMK A01 T01360110  RH  084%=      5-min Rain = 0
KBY1 160940Z 02001KT 14/11 A3006 RMK A01 T01370111  RH  084%=      5-min Rain = 0
KBY1 160941Z 35000KT 14/11 A3006 RMK A01 T01370110  RH  083%=      5-min Rain = 0
KBY1 160942Z 00000KT 14/11 A3006 RMK A01 T01370110  RH  083%=      5-min Rain = 0
KBY1 160943Z 00000KT 14/11 A3006 RMK A01 T01380113  RH  085%=      5-min Rain = 0
KBY1 160944Z 00000KT 14/11 A3006 RMK A01 T01390113  RH  084%=      5-min Rain = 0
KBY1 160945Z 00000KT 14/11 A3006 RMK A01 T01390111  RH  083%=      5-min Rain = 0
KBY1 160946Z 00000KT 14/11 A3006 RMK A01 T01390112  RH  084%=      5-min Rain = 0
KBY1 160947Z 00000KT 14/11 A3006 RMK A01 T01390111  RH  083%=      5-min Rain = 0
KBY1 160948Z 19000KT 14/11 A3006 RMK A01 T01390111  RH  083%=      5-min Rain = 0
KBY1 160949Z 19000KT 14/11 A3006 RMK A01 T01380109  RH  082%=      5-min Rain = 0
KBY1 160950Z 00000KT 14/11 A3006 RMK A01 T01380108  RH  082%=      5-min Rain = 0
KBY1 160951Z 00000KT 14/11 A3006 RMK A01 T01370107  RH  082%=      5-min Rain = 0
KBY1 160952Z 24000KT 14/11 A3006 RMK A01 T01370107  RH  082%=      5-min Rain = 0
KBY1 160953Z 24001KT 14/11 A3006 RMK A01 T01360107  RH  082%=      5-min Rain = 0
KBY1 160954Z 23001KT 14/11 A3006 RMK A01 T01360107  RH  083%=      5-min Rain = 0
KBY1 160955Z 21001KT 14/11 A3006 RMK A01 T01360106  RH  083%=      5-min Rain = 0
KBY1 160956Z 20000KT 14/11 A3006 RMK A01 T01350105  RH  082%=      5-min Rain = 0
KBY1 160957Z 27000KT 13/10 A3006 RMK A01 T01340104  RH  082%=      5-min Rain = 0
KBY1 160958Z 29001KT 13/11 A3006 RMK A01 T01330106  RH  084%=      5-min Rain = 0
KBY1 160959Z 27001KT 13/11 A3006 RMK A01 T01330107  RH  084%=      5-min Rain = 0
KBY1 161000Z 29000KT 13/11 A3006 RMK A01 T01330107  RH  084%=      5-min Rain = 0
KBY1 161001Z 32000KT 13/11 A3006 RMK A01 T01320106  RH  084%=      5-min Rain = 0
KBY1 161002Z 32002KT 13/11 A3005 RMK A01 T01320106  RH  084%=      5-min Rain = 0
KBY1 161003Z 32002KT 13/11 A3005 RMK A01 T01310107  RH  085%=      5-min Rain = 0
KBY1 161004Z 32002KT 13/11 A3005 RMK A01 T01320108  RH  086%=      5-min Rain = 0
KBY1 161005Z 32001KT 13/11 A3005 RMK A01 T01330109  RH  086%=      5-min Rain = 0
KBY1 161006Z 31001KT 13/11 A3005 RMK A01 T01330109  RH  085%=      5-min Rain = 0
KBY1 161007Z 31001KT 13/11 A3005 RMK A01 T01330109  RH  085%=      5-min Rain = 0
KBY1 161008Z 30001KT 13/11 A3005 RMK A01 T01330109  RH  085%=      5-min Rain = 0
KBY1 161009Z 28000KT 13/11 A3005 RMK A01 T01340109  RH  085%=      5-min Rain = 0
KBY1 161010Z 27001KT 13/11 A3005 RMK A01 T01340108  RH  084%=      5-min Rain = 0
KBY1 161011Z 26001KT 13/11 A3005 RMK A01 T01330108  RH  085%=      5-min Rain = 0
KBY1 161012Z 26000KT 13/11 A3005 RMK A01 T01330109  RH  085%=      5-min Rain = 0
KBY1 161013Z 00000KT 13/11 A3005 RMK A01 T01330105  RH  083%=      5-min Rain = 0
KBY1 161014Z 27001KT 13/10 A3005 RMK A01 T01300102  RH  083%=      5-min Rain = 0
KBY1 161015Z 28002KT 13/10 A3005 RMK A01 T01280100  RH  083%=      5-min Rain = 0
KBY1 161016Z 29002KT 13/10 A3005 RMK A01 T01270101  RH  085%=      5-min Rain = 0
KBY1 161017Z 29003KT 13/10 A3005 RMK A01 T01260104  RH  086%=      5-min Rain = 0
KBY1 161018Z 28004KT 13/11 A3005 RMK A01 T01270106  RH  087%=      5-min Rain = 0
KBY1 161019Z 28004KT 13/11 A3005 RMK A01 T01280108  RH  088%=      5-min Rain = 0
KBY1 161020Z 28004KT 13/11 A3005 RMK A01 T01290110  RH  088%=      5-min Rain = 0
KBY1 161021Z 29005KT 13/11 A3005 RMK A01 T01300111  RH  088%=      5-min Rain = 0
KBY1 161022Z 29005KT 13/11 A3004 RMK A01 T01320111  RH  087%=      5-min Rain = 0
KBY1 161023Z 29005KT 13/11 A3004 RMK A01 T01320110  RH  086%=      5-min Rain = 0
KBY1 161024Z 28005KT 13/11 A3004 RMK A01 T01330110  RH  086%=      5-min Rain = 0
KBY1 161025Z 28005KT 13/11 A3004 RMK A01 T01330110  RH  086%=      5-min Rain = 0
KBY1 161026Z 28005KT 13/11 A3004 RMK A01 T01330110  RH  086%=      5-min Rain = 0
KBY1 161027Z 29005KT 13/11 A3004 RMK A01 T01330110  RH  086%=      5-min Rain = 0
KBY1 161028Z 29005KT 13/11 A3004 RMK A01 T01330110  RH  086%=      5-min Rain = 0
KBY1 161029Z 29005KT 13/11 A3004 RMK A01 T01340110  RH  086%=      5-min Rain = 0
KBY1 161030Z 29005KT 13/11 A3004 RMK A01 T01340110  RH  086%=      5-min Rain = 0
KBY1 161031Z 29005KT 13/11 A3004 RMK A01 T01340111  RH  086%=      5-min Rain = 0
KBY1 161032Z 29004KT 13/11 A3004 RMK A01 T01340111  RH  086%=      5-min Rain = 0
KBY1 161033Z 28004KT 13/11 A3004 RMK A01 T01340110  RH  086%=      5-min Rain = 0
KBY1 161034Z 28003KT 13/11 A3004 RMK A01 T01340110  RH  086%=      5-min Rain = 0
KBY1 161035Z 26002KT 13/11 A3004 RMK A01 T01330109  RH  085%=      5-min Rain = 0
KBY1 161036Z 27002KT 13/11 A3004 RMK A01 T01320108  RH  086%=      5-min Rain = 0
KBY1 161037Z 28004KT 13/11 A3004 RMK A01 T01310109  RH  086%=      5-min Rain = 0
KBY1 161038Z 28004KT 13/11 A3004 RMK A01 T01310108  RH  086%=      5-min Rain = 0
KBY1 161039Z 27004KT 13/11 A3005 RMK A01 T01300108  RH  086%=      5-min Rain = 0
KBY1 161040Z 26003KT 13/11 A3005 RMK A01 T01300107  RH  086%=      5-min Rain = 0
KBY1 161041Z 26003KT 13/11 A3005 RMK A01 T01300107  RH  086%=      5-min Rain = 0
KBY1 161042Z 26002KT 13/11 A3005 RMK A01 T01290108  RH  087%=      5-min Rain = 0
KBY1 161043Z 26000KT 13/11 A3005 RMK A01 T01300107  RH  086%=      5-min Rain = 0
KBY1 161044Z 28002KT 13/11 A3005 RMK A01 T01290105  RH  085%=      5-min Rain = 0
KBY1 161045Z 28003KT 13/11 A3005 RMK A01 T01290106  RH  086%=      5-min Rain = 0
KBY1 161046Z 28003KT 13/11 A3005 RMK A01 T01290106  RH  086%=      5-min Rain = 0
KBY1 161047Z 28003KT 13/11 A3005 RMK A01 T01280106  RH  086%=      5-min Rain = 0
KBY1 161048Z 28004KT 13/11 A3005 RMK A01 T01280106  RH  086%=      5-min Rain = 0
KBY1 161049Z 28004KT 13/11 A3005 RMK A01 T01280106  RH  087%=      5-min Rain = 0
KBY1 161050Z 29004KT 13/11 A3005 RMK A01 T01280106  RH  087%=      5-min Rain = 0
KBY1 161051Z 25003KT 13/11 A3005 RMK A01 T01280106  RH  086%=      5-min Rain = 0
KBY1 161052Z 18002KT 13/10 A3005 RMK A01 T01270102  RH  085%=      5-min Rain = 0
KBY1 161053Z 25002KT 13/10 A3005 RMK A01 T01260104  RH  086%=      5-min Rain = 0
KBY1 161054Z 24002KT 13/11 A3005 RMK A01 T01260105  RH  087%=      5-min Rain = 0
KBY1 161055Z 25001KT 13/10 A3005 RMK A01 T01250102  RH  086%=      5-min Rain = 0
KBY1 161056Z 25000KT 12/10 A3005 RMK A01 T01240102  RH  087%=      5-min Rain = 0
KBY1 161057Z 25001KT 12/10 A3005 RMK A01 T01230102  RH  087%=      5-min Rain = 0
KBY1 161058Z 18000KT 12/10 A3005 RMK A01 T01220102  RH  087%=      5-min Rain = 0
KBY1 161059Z 00000KT 12/10 A3005 RMK A01 T01220101  RH  087%=      5-min Rain = 0
KBY1 161100Z 00000KT 12/10 A3005 RMK A01 T01210101  RH  087%=      5-min Rain = 0
KBY1 161101Z 00000KT 12/10 A3006 RMK A01 T01200100  RH  087%=      5-min Rain = 0
KBY1 161102Z 00000KT 12/10 A3006 RMK A01 T01200100  RH  088%=      5-min Rain = 0
KBY1 161103Z 19001KT 12/10 A3006 RMK A01 T01200100  RH  088%=      5-min Rain = 0
KBY1 161104Z 20001KT 12/10 A3006 RMK A01 T01200101  RH  088%=      5-min Rain = 0
KBY1 161105Z 19002KT 12/10 A3006 RMK A01 T01190100  RH  088%=      5-min Rain = 0
KBY1 161106Z 20002KT 12/10 A3006 RMK A01 T01180100  RH  088%=      5-min Rain = 0
KBY1 161107Z 20002KT 12/10 A3006 RMK A01 T01180099  RH  088%=      5-min Rain = 0
KBY1 161108Z 20002KT 12/10 A3006 RMK A01 T01170099  RH  088%=      5-min Rain = 0
KBY1 161109Z 20002KT 12/10 A3006 RMK A01 T01170099  RH  089%=      5-min Rain = 0
KBY1 161110Z 21002KT 12/10 A3006 RMK A01 T01170099  RH  089%=      5-min Rain = 0
KBY1 161111Z 21001KT 12/10 A3006 RMK A01 T01160099  RH  089%=      5-min Rain = 0
KBY1 161112Z 23000KT 12/10 A3006 RMK A01 T01160099  RH  089%=      5-min Rain = 0
KBY1 161113Z 30000KT 12/10 A3006 RMK A01 T01160100  RH  090%=      5-min Rain = 0
KBY1 161114Z 31001KT 12/10 A3006 RMK A01 T01160101  RH  090%=      5-min Rain = 0
KBY1 161115Z 29001KT 12/10 A3006 RMK A01 T01170101  RH  090%=      5-min Rain = 0
KBY1 161116Z 28001KT 12/10 A3006 RMK A01 T01170100  RH  089%=      5-min Rain = 0
KBY1 161117Z 26001KT 12/10 A3006 RMK A01 T01170100  RH  089%=      5-min Rain = 0
KBY1 161118Z 27001KT 12/10 A3006 RMK A01 T01180103  RH  091%=      5-min Rain = 0
KBY1 161119Z 27001KT 12/11 A3006 RMK A01 T01190106  RH  091%=      5-min Rain = 0
KBY1 161120Z 26002KT 12/11 A3006 RMK A01 T01210106  RH  091%=      5-min Rain = 0
KBY1 161121Z 26002KT 12/11 A3006 RMK A01 T01220107  RH  091%=      5-min Rain = 0
KBY1 161122Z 26002KT 12/11 A3006 RMK A01 T01230108  RH  091%=      5-min Rain = 0
KBY1 161123Z 26002KT 12/11 A3006 RMK A01 T01240108  RH  090%=      5-min Rain = 0
KBY1 161124Z 26002KT 13/11 A3006 RMK A01 T01250108  RH  090%=      5-min Rain = 0
KBY1 161125Z 26002KT 13/11 A3006 RMK A01 T01250107  RH  089%=      5-min Rain = 0
KBY1 161126Z 27001KT 13/11 A3006 RMK A01 T01250107  RH  089%=      5-min Rain = 0
KBY1 161127Z 28001KT 13/11 A3006 RMK A01 T01250106  RH  088%=      5-min Rain = 0
KBY1 161128Z 31002KT 13/11 A3006 RMK A01 T01250105  RH  088%=      5-min Rain = 0
KBY1 161129Z 32003KT 13/11 A3006 RMK A01 T01250105  RH  088%=      5-min Rain = 0
KBY1 161130Z 31002KT 12/11 A3006 RMK A01 T01240105  RH  088%=      5-min Rain = 0
KBY1 161131Z 30003KT 12/11 A3006 RMK A01 T01240105  RH  088%=      5-min Rain = 0
KBY1 161132Z 28002KT 12/11 A3006 RMK A01 T01240106  RH  089%=      5-min Rain = 0
KBY1 161133Z 27002KT 13/11 A3006 RMK A01 T01250109  RH  090%=      5-min Rain = 0
KBY1 161134Z 25001KT 13/11 A3006 RMK A01 T01260109  RH  089%=      5-min Rain = 0
KBY1 161135Z 25001KT 13/11 A3006 RMK A01 T01270109  RH  089%=      5-min Rain = 0
KBY1 161136Z 26002KT 13/11 A3006 RMK A01 T01280109  RH  089%=      5-min Rain = 0
KBY1 161137Z 26002KT 13/11 A3006 RMK A01 T01280109  RH  088%=      5-min Rain = 0
KBY1 161138Z 25002KT 13/11 A3006 RMK A01 T01280110  RH  089%=      5-min Rain = 0
KBY1 161139Z 25002KT 13/11 A3006 RMK A01 T01290112  RH  089%=      5-min Rain = 0
KBY1 161140Z 25002KT 13/11 A3007 RMK A01 T01300111  RH  089%=      5-min Rain = 0
KBY1 161141Z 28001KT 13/11 A3007 RMK A01 T01300111  RH  088%=      5-min Rain = 0
KBY1 161142Z 30001KT 13/11 A3007 RMK A01 T01290107  RH  086%=      5-min Rain = 0
KBY1 161143Z 31002KT 13/11 A3007 RMK A01 T01270106  RH  087%=      5-min Rain = 0
KBY1 161144Z 31003KT 13/11 A3007 RMK A01 T01270106  RH  087%=      5-min Rain = 0
KBY1 161145Z 31004KT 13/11 A3007 RMK A01 T01270107  RH  088%=      5-min Rain = 0
KBY1 161146Z 30004KT 13/11 A3007 RMK A01 T01270107  RH  088%=      5-min Rain = 0
KBY1 161147Z 30003KT 13/11 A3007 RMK A01 T01270109  RH  089%=      5-min Rain = 0
KBY1 161148Z 30004KT 13/11 A3007 RMK A01 T01280110  RH  088%=      5-min Rain = 0
KBY1 161149Z 31004KT 13/11 A3007 RMK A01 T01290110  RH  088%=      5-min Rain = 0
KBY1 161150Z 31004KT 13/11 A3007 RMK A01 T01290108  RH  087%=      5-min Rain = 0
KBY1 161151Z 31004KT 13/11 A3007 RMK A01 T01290108  RH  087%=      5-min Rain = 0
KBY1 161152Z 30004KT 13/11 A3007 RMK A01 T01280108  RH  087%=      5-min Rain = 0
KBY1 161153Z 30004KT 13/11 A3007 RMK A01 T01290110  RH  088%=      5-min Rain = 0
KBY1 161154Z 30005KT 13/11 A3007 RMK A01 T01290112  RH  089%=      5-min Rain = 0
KBY1 161155Z 30005KT 13/11 A3007 RMK A01 T01300112  RH  089%=      5-min Rain = 0
KBY1 161156Z 30004KT 13/11 A3007 RMK A01 T01320112  RH  088%=      5-min Rain = 0
KBY1 161157Z 29004KT 13/11 A3007 RMK A01 T01320111  RH  087%=      5-min Rain = 0
KBY1 161158Z 30004KT 13/11 A3007 RMK A01 T01330111  RH  087%=      5-min Rain = 0
KBY1 161159Z 30002KT 13/11 A3007 RMK A01 T01330110  RH  086%=      5-min Rain = 0
KBY1 161200Z 29002KT 13/11 A3007 RMK A01 T01320106  RH  084%=      5-min Rain = 0
KBY1 161201Z 30002KT 13/11 A3007 RMK A01 T01300106  RH  085%=      5-min Rain = 0
KBY1 161202Z 30003KT 13/11 A3007 RMK A01 T01290109  RH  087%=      5-min Rain = 0
KBY1 161203Z 31003KT 13/11 A3007 RMK A01 T01300110  RH  088%=      5-min Rain = 0
KBY1 161204Z 31004KT 13/11 A3007 RMK A01 T01300110  RH  088%=      5-min Rain = 0
KBY1 161205Z 31004KT 13/11 A3007 RMK A01 T01310110  RH  087%=      5-min Rain = 0
KBY1 161206Z 31004KT 13/11 A3007 RMK A01 T01310110  RH  087%=      5-min Rain = 0
KBY1 161207Z 32005KT 13/11 A3007 RMK A01 T01320111  RH  087%=      5-min Rain = 0
KBY1 161208Z 32005KT 13/11 A3007 RMK A01 T01320111  RH  087%=      5-min Rain = 0
KBY1 161209Z 32005KT 13/11 A3007 RMK A01 T01330110  RH  086%=      5-min Rain = 0
KBY1 161210Z 32005KT 13/11 A3007 RMK A01 T01320109  RH  086%=      5-min Rain = 0
KBY1 161211Z 33006KT 13/11 A3007 RMK A01 T01320109  RH  086%=      5-min Rain = 0
KBY1 161212Z 33006KT 13/11 A3007 RMK A01 T01320108  RH  086%=      5-min Rain = 0
KBY1 161213Z 32006KT 13/11 A3007 RMK A01 T01310108  RH  086%=      5-min Rain = 0
KBY1 161214Z 31005KT 13/11 A3007 RMK A01 T01310108  RH  086%=      5-min Rain = 0
KBY1 161215Z 29004KT 13/11 A3008 RMK A01 T01310109  RH  086%=      5-min Rain = 0
KBY1 161216Z 22003KT 13/11 A3008 RMK A01 T01310109  RH  086%=      5-min Rain = 0
KBY1 161217Z 23003KT 13/11 A3008 RMK A01 T01320108  RH  086%=      5-min Rain = 0
KBY1 161218Z 28003KT 13/11 A3008 RMK A01 T01300106  RH  085%=      5-min Rain = 0
KBY1 161219Z 29002KT 13/11 A3008 RMK A01 T01290107  RH  086%=      5-min Rain = 0
KBY1 161220Z 30002KT 13/11 A3008 RMK A01 T01290108  RH  087%=      5-min Rain = 0
KBY1 161221Z 30002KT 13/11 A3008 RMK A01 T01300108  RH  087%=      5-min Rain = 0
KBY1 161222Z 30002KT 13/11 A3008 RMK A01 T01300108  RH  086%=      5-min Rain = 0
KBY1 161223Z 29003KT 13/11 A3008 RMK A01 T01320109  RH  086%=      5-min Rain = 0
KBY1 161224Z 29002KT 13/11 A3008 RMK A01 T01320109  RH  086%=      5-min Rain = 0
KBY1 161225Z 26001KT 13/11 A3008 RMK A01 T01330109  RH  086%=      5-min Rain = 0
KBY1 161226Z 25001KT 13/11 A3008 RMK A01 T01330110  RH  086%=      5-min Rain = 0
KBY1 161227Z 23001KT 13/11 A3008 RMK A01 T01330109  RH  085%=      5-min Rain = 0
KBY1 161228Z 25002KT 13/11 A3008 RMK A01 T01330109  RH  085%=      5-min Rain = 0
KBY1 161229Z 26001KT 13/11 A3008 RMK A01 T01330109  RH  085%=      5-min Rain = 0
KBY1 161230Z 31001KT 13/11 A3008 RMK A01 T01340109  RH  085%=      5-min Rain = 0
KBY1 161231Z 35001KT 13/11 A3008 RMK A01 T01340109  RH  085%=      5-min Rain = 0
KBY1 161232Z 02001KT 14/11 A3008 RMK A01 T01350110  RH  085%=      5-min Rain = 0
KBY1 161233Z 01001KT 14/11 A3008 RMK A01 T01360111  RH  084%=      5-min Rain = 0
KBY1 161234Z 01001KT 14/11 A3008 RMK A01 T01380110  RH  084%=      5-min Rain = 0
KBY1 161235Z 01002KT 14/11 A3008 RMK A01 T01390110  RH  083%=      5-min Rain = 0
KBY1 161236Z 01002KT 14/11 A3008 RMK A01 T01390110  RH  082%=      5-min Rain = 0
KBY1 161237Z 01002KT 14/11 A3008 RMK A01 T01400109  RH  082%=      5-min Rain = 0
KBY1 161238Z 36002KT 14/11 A3008 RMK A01 T01400110  RH  082%=      5-min Rain = 0
KBY1 161239Z 36002KT 14/11 A3008 RMK A01 T01410110  RH  081%=      5-min Rain = 0
KBY1 161240Z 01002KT 14/11 A3008 RMK A01 T01410110  RH  081%=      5-min Rain = 0
KBY1 161241Z 03002KT 14/11 A3008 RMK A01 T01410110  RH  081%=      5-min Rain = 0
KBY1 161242Z 04003KT 14/11 A3008 RMK A01 T01420111  RH  082%=      5-min Rain = 0
KBY1 161243Z 04003KT 14/11 A3008 RMK A01 T01440112  RH  081%=      5-min Rain = 0
KBY1 161244Z 03003KT 15/11 A3008 RMK A01 T01450112  RH  081%=      5-min Rain = 0
KBY1 161245Z 03003KT 15/11 A3008 RMK A01 T01460113  RH  080%=      5-min Rain = 0
KBY1 161246Z 02002KT 15/11 A3008 RMK A01 T01470113  RH  080%=      5-min Rain = 0
KBY1 161247Z 01002KT 15/11 A3008 RMK A01 T01470113  RH  080%=      5-min Rain = 0
KBY1 161248Z 35001KT 15/11 A3009 RMK A01 T01480113  RH  080%=      5-min Rain = 0
KBY1 161249Z 31002KT 15/11 A3009 RMK A01 T01480113  RH  079%=      5-min Rain = 0
KBY1 161250Z 30002KT 15/11 A3009 RMK A01 T01480113  RH  079%=      5-min Rain = 0
KBY1 161251Z 27003KT 15/11 A3009 RMK A01 T01490114  RH  079%=      5-min Rain = 0
KBY1 161252Z 27003KT 15/11 A3009 RMK A01 T01490113  RH  079%=      5-min Rain = 0
KBY1 161253Z 28003KT 15/11 A3009 RMK A01 T01500114  RH  079%=      5-min Rain = 0
KBY1 161254Z 29003KT 15/12 A3009 RMK A01 T01500115  RH  079%=      5-min Rain = 0
KBY1 161255Z 30003KT 15/11 A3009 RMK A01 T01510114  RH  079%=      5-min Rain = 0
KBY1 161256Z 30002KT 15/12 A3009 RMK A01 T01510115  RH  079%=      5-min Rain = 0
KBY1 161257Z 31002KT 15/12 A3009 RMK A01 T01510115  RH  079%=      5-min Rain = 0
KBY1 161258Z 34003KT 15/12 A3009 RMK A01 T01500115  RH  079%=      5-min Rain = 0
KBY1 161259Z 34003KT 15/12 A3009 RMK A01 T01500115  RH  080%=      5-min Rain = 0
KBY1 161300Z 33002KT 15/12 A301 RMK A01 T01500116  RH  080%=      5-min Rain = 0
KBY1 161301Z 33004KT 15/12 A301 RMK A01 T01500116  RH  080%=      5-min Rain = 0
KBY1 161302Z 33003KT 15/12 A301 RMK A01 T01500117  RH  081%=      5-min Rain = 0
KBY1 161303Z 35003KT 15/12 A301 RMK A01 T01500118  RH  081%=      5-min Rain = 0
KBY1 161304Z 34006KT 15/12 A301 RMK A01 T01510120  RH  081%=      5-min Rain = 0
KBY1 161305Z 35004KT 15/12 A301 RMK A01 T01530122  RH  082%=      5-min Rain = 0
KBY1 161306Z 35004KT 15/12 A301 RMK A01 T01530122  RH  082%=      5-min Rain = 0
KBY1 161307Z 35005KT 15/12 A301 RMK A01 T01540123  RH  082%=      5-min Rain = 0
KBY1 161308Z 35004KT 15/12 A301 RMK A01 T01540123  RH  082%=      5-min Rain = 0
KBY1 161309Z 34004KT 15/12 A301 RMK A01 T01540123  RH  082%=      5-min Rain = 0
KBY1 161310Z 35004KT 16/12 A301 RMK A01 T01550124  RH  082%=      5-min Rain = 0
KBY1 161311Z 35003KT 16/13 A301 RMK A01 T01560125  RH  082%=      5-min Rain = 0
KBY1 161312Z 35002KT 16/13 A301 RMK A01 T01560125  RH  082%=      5-min Rain = 0
KBY1 161313Z 34003KT 16/13 A301 RMK A01 T01570126  RH  082%=      5-min Rain = 0
KBY1 161314Z 35002KT 16/13 A301 RMK A01 T01580126  RH  081%=      5-min Rain = 0
KBY1 161315Z 00001KT 16/13 A301 RMK A01 T01590126  RH  081%=      5-min Rain = 0
KBY1 161316Z 34001KT 16/13 A301 RMK A01 T01590127  RH  081%=      5-min Rain = 0
KBY1 161317Z 00001KT 16/13 A301 RMK A01 T01600127  RH  081%=      5-min Rain = 0
KBY1 161318Z 34002KT 16/13 A301 RMK A01 T01610128  RH  080%=      5-min Rain = 0
KBY1 161319Z 36003KT 16/13 A301 RMK A01 T01620128  RH  080%=      5-min Rain = 0
KBY1 161320Z 35003KT 16/13 A301 RMK A01 T01620127  RH  080%=      5-min Rain = 0
KBY1 161321Z 36003KT 16/13 A301 RMK A01 T01620128  RH  080%=      5-min Rain = 0
KBY1 161322Z 35002KT 16/13 A301 RMK A01 T01620127  RH  080%=      5-min Rain = 0
KBY1 161323Z 36002KT 16/13 A3009 RMK A01 T01630128  RH  080%=      5-min Rain = 0
KBY1 161324Z 36002KT 16/13 A3009 RMK A01 T01640129  RH  080%=      5-min Rain = 0
KBY1 161325Z 36001KT 16/13 A3009 RMK A01 T01640129  RH  080%=      5-min Rain = 0
KBY1 161326Z 09002KT 17/13 A301 RMK A01 T01660129  RH  079%=      5-min Rain = 0
KBY1 161327Z 11003KT 17/13 A301 RMK A01 T01660127  RH  077%=      5-min Rain = 0
KBY1 161328Z 11003KT 17/13 A301 RMK A01 T01670127  RH  077%=      5-min Rain = 0
KBY1 161329Z 14002KT 17/13 A301 RMK A01 T01660127  RH  078%=      5-min Rain = 0
KBY1 161330Z 12002KT 17/13 A301 RMK A01 T01680128  RH  077%=      5-min Rain = 0
KBY1 161331Z 15001KT 17/13 A301 RMK A01 T01690128  RH  077%=      5-min Rain = 0
KBY1 161332Z 15002KT 17/13 A301 RMK A01 T01700128  RH  076%=      5-min Rain = 0
KBY1 161333Z 16001KT 17/13 A301 RMK A01 T01700129  RH  076%=      5-min Rain = 0
KBY1 161334Z 13002KT 17/13 A301 RMK A01 T01700129  RH  076%=      5-min Rain = 0
KBY1 161335Z 13001KT 17/13 A301 RMK A01 T01710129  RH  076%=      5-min Rain = 0
KBY1 161336Z 17002KT 17/13 A301 RMK A01 T01720129  RH  076%=      5-min Rain = 0
KBY1 161337Z 17001KT 17/13 A301 RMK A01 T01730129  RH  075%=      5-min Rain = 0
KBY1 161338Z 18001KT 17/13 A301 RMK A01 T01730130  RH  076%=      5-min Rain = 0
KBY1 161339Z 18001KT 17/13 A301 RMK A01 T01730130  RH  076%=      5-min Rain = 0
KBY1 161340Z 18001KT 17/13 A301 RMK A01 T01730130  RH  076%=      5-min Rain = 0
KBY1 161341Z 21001KT 17/13 A301 RMK A01 T01740130  RH  075%=      5-min Rain = 0
KBY1 161342Z 21001KT 17/13 A301 RMK A01 T01740129  RH  075%=      5-min Rain = 0
KBY1 161343Z 23002KT 17/13 A301 RMK A01 T01730129  RH  075%=      5-min Rain = 0
KBY1 161344Z 21002KT 17/13 A301 RMK A01 T01720128  RH  075%=      5-min Rain = 0
KBY1 161345Z 19002KT 17/13 A301 RMK A01 T01720129  RH  076%=      5-min Rain = 0
KBY1 161346Z 20002KT 17/13 A301 RMK A01 T01710128  RH  076%=      5-min Rain = 0
KBY1 161347Z 18001KT 17/13 A301 RMK A01 T01710128  RH  076%=      5-min Rain = 0
KBY1 161348Z 21002KT 17/13 A301 RMK A01 T01710128  RH  076%=      5-min Rain = 0
KBY1 161349Z 21002KT 17/13 A301 RMK A01 T01710129  RH  076%=      5-min Rain = 0
KBY1 161350Z 20003KT 17/13 A301 RMK A01 T01710128  RH  076%=      5-min Rain = 0
KBY1 161351Z 19004KT 17/13 A301 RMK A01 T01710128  RH  076%=      5-min Rain = 0
KBY1 161352Z 19004KT 17/13 A301 RMK A01 T01700127  RH  076%=      5-min Rain = 0
KBY1 161353Z 21003KT 17/13 A301 RMK A01 T01690127  RH  076%=      5-min Rain = 0
KBY1 161354Z 22002KT 17/13 A301 RMK A01 T01700128  RH  076%=      5-min Rain = 0
KBY1 161355Z 21003KT 17/13 A301 RMK A01 T01700126  RH  076%=      5-min Rain = 0
KBY1 161356Z 20004KT 17/13 A301 RMK A01 T01700127  RH  076%=      5-min Rain = 0
KBY1 161357Z 21004KT 17/13 A301 RMK A01 T01700127  RH  076%=      5-min Rain = 0
KBY1 161358Z 21003KT 17/13 A301 RMK A01 T01700126  RH  075%=      5-min Rain = 0
KBY1 161359Z 21002KT 17/13 A301 RMK A01 T01690127  RH  076%=      5-min Rain = 0
KBY1 161400Z 23002KT 17/13 A301 RMK A01 T01700127  RH  076%=      5-min Rain = 0
KBY1 161401Z 24002KT 17/13 A301 RMK A01 T01700126  RH  075%=      5-min Rain = 0
KBY1 161402Z 24003KT 17/13 A301 RMK A01 T01700127  RH  076%=      5-min Rain = 0
KBY1 161403Z 25003KT 17/13 A301 RMK A01 T01700127  RH  076%=      5-min Rain = 0
KBY1 161404Z 26002KT 17/13 A301 RMK A01 T01700127  RH  076%=      5-min Rain = 0
KBY1 161405Z 22001KT 17/13 A301 RMK A01 T01710128  RH  076%=      5-min Rain = 0
KBY1 161406Z 26001KT 17/13 A301 RMK A01 T01720129  RH  075%=      5-min Rain = 0
KBY1 161407Z 27002KT 17/13 A301 RMK A01 T01730128  RH  075%=      5-min Rain = 0
KBY1 161408Z 27002KT 17/13 A301 RMK A01 T01730128  RH  075%=      5-min Rain = 0
KBY1 161409Z 25001KT 17/13 A301 RMK A01 T01730129  RH  075%=      5-min Rain = 0
KBY1 161410Z 27001KT 17/13 A301 RMK A01 T01730129  RH  075%=      5-min Rain = 0
KBY1 161411Z 31001KT 17/13 A301 RMK A01 T01740129  RH  075%=      5-min Rain = 0
KBY1 161412Z 31000KT 18/13 A301 RMK A01 T01750130  RH  075%=      5-min Rain = 0
KBY1 161413Z 28000KT 18/13 A301 RMK A01 T01760130  RH  074%=      5-min Rain = 0
KBY1 161414Z 33000KT 18/13 A301 RMK A01 T01770130  RH  074%=      5-min Rain = 0
KBY1 161415Z 30001KT 18/13 A301 RMK A01 T01770129  RH  074%=      5-min Rain = 0
KBY1 161416Z 00000KT 18/13 A301 RMK A01 T01770129  RH  074%=      5-min Rain = 0
KBY1 161417Z 00000KT 18/13 A301 RMK A01 T01770129  RH  074%=      5-min Rain = 0
KBY1 161418Z 00000KT 18/13 A301 RMK A01 T01770130  RH  074%=      5-min Rain = 0
KBY1 161419Z 00000KT 18/13 A301 RMK A01 T01780130  RH  073%=      5-min Rain = 0
KBY1 161420Z 20001KT 18/13 A301 RMK A01 T01780130  RH  073%=      5-min Rain = 0
KBY1 161421Z 20001KT 18/13 A301 RMK A01 T01780130  RH  073%=      5-min Rain = 0
KBY1 161422Z 22001KT 18/13 A301 RMK A01 T01790130  RH  073%=      5-min Rain = 0
KBY1 161423Z 20000KT 18/13 A3009 RMK A01 T01790131  RH  074%=      5-min Rain = 0
KBY1 161424Z 17001KT 18/13 A3009 RMK A01 T01790130  RH  073%=      5-min Rain = 0
KBY1 161425Z 22001KT 18/13 A3009 RMK A01 T01800130  RH  072%=      5-min Rain = 0
KBY1 161426Z 26002KT 18/13 A3009 RMK A01 T01810131  RH  073%=      5-min Rain = 0
KBY1 161427Z 26002KT 18/13 A301 RMK A01 T01810130  RH  072%=      5-min Rain = 0
KBY1 161428Z 24001KT 18/13 A3009 RMK A01 T01820131  RH  072%=      5-min Rain = 0
KBY1 161429Z 24002KT 18/13 A3009 RMK A01 T01820131  RH  072%=      5-min Rain = 0
KBY1 161430Z 24001KT 18/13 A3009 RMK A01 T01820131  RH  072%=      5-min Rain = 0
KBY1 161431Z 24001KT 18/13 A3009 RMK A01 T01820131  RH  072%=      5-min Rain = 0
KBY1 161432Z 23002KT 18/13 A3009 RMK A01 T01830132  RH  072%=      5-min Rain = 0
KBY1 161433Z 22003KT 19/13 A3009 RMK A01 T01850133  RH  072%=      5-min Rain = 0
KBY1 161434Z 24003KT 19/13 A3009 RMK A01 T01850132  RH  071%=      5-min Rain = 0
KBY1 161435Z 24002KT 19/13 A3009 RMK A01 T01860133  RH  071%=      5-min Rain = 0
KBY1 161436Z 23001KT 19/13 A3009 RMK A01 T01860132  RH  071%=      5-min Rain = 0
KBY1 161437Z 26002KT 19/13 A3009 RMK A01 T01860132  RH  071%=      5-min Rain = 0
KBY1 161438Z 27001KT 19/13 A3009 RMK A01 T01870132  RH  070%=      5-min Rain = 0
KBY1 161439Z 25001KT 19/13 A3009 RMK A01 T01880132  RH  070%=      5-min Rain = 0
KBY1 161440Z 28001KT 19/13 A3009 RMK A01 T01880132  RH  070%=      5-min Rain = 0
KBY1 161441Z 33001KT 19/13 A3009 RMK A01 T01880132  RH  070%=      5-min Rain = 0
KBY1 161442Z 33002KT 19/13 A3009 RMK A01 T01890132  RH  069%=      5-min Rain = 0
KBY1 161443Z 30001KT 19/13 A3009 RMK A01 T01890131  RH  069%=      5-min Rain = 0
KBY1 161444Z 15000KT 19/13 A3009 RMK A01 T01890132  RH  069%=      5-min Rain = 0
KBY1 161445Z 17000KT 19/13 A3009 RMK A01 T01890131  RH  069%=      5-min Rain = 0
KBY1 161446Z 00000KT 19/13 A3009 RMK A01 T01900132  RH  069%=      5-min Rain = 0
KBY1 161447Z 10000KT 19/13 A301 RMK A01 T01900132  RH  069%=      5-min Rain = 0
KBY1 161448Z 31001KT 19/13 A301 RMK A01 T01910132  RH  069%=      5-min Rain = 0
KBY1 161449Z 34002KT 19/13 A301 RMK A01 T01920133  RH  069%=      5-min Rain = 0
KBY1 161450Z 33002KT 19/13 A301 RMK A01 T01920133  RH  068%=      5-min Rain = 0
KBY1 161451Z 36001KT 19/13 A301 RMK A01 T01930133  RH  068%=      5-min Rain = 0
KBY1 161452Z 36001KT 19/13 A301 RMK A01 T01930133  RH  068%=      5-min Rain = 0
KBY1 161453Z 32000KT 19/13 A301 RMK A01 T01930131  RH  067%=      5-min Rain = 0
KBY1 161454Z 00000KT 19/13 A301 RMK A01 T01930132  RH  067%=      5-min Rain = 0
KBY1 161455Z 00000KT 19/13 A301 RMK A01 T01940132  RH  067%=      5-min Rain = 0
KBY1 161456Z 00000KT 19/13 A301 RMK A01 T01940132  RH  067%=      5-min Rain = 0
KBY1 161457Z 00000KT 20/13 A301 RMK A01 T01950133  RH  067%=      5-min Rain = 0
KBY1 161458Z 00000KT 20/13 A301 RMK A01 T01950133  RH  067%=      5-min Rain = 0
KBY1 161459Z 12000KT 20/13 A301 RMK A01 T01950132  RH  067%=      5-min Rain = 0
KBY1 161500Z 10002KT 20/13 A301 RMK A01 T01960133  RH  067%=      5-min Rain = 0
KBY1 161501Z 08002KT 20/13 A301 RMK A01 T01960134  RH  067%=      5-min Rain = 0
KBY1 161502Z 07002KT 20/13 A301 RMK A01 T01950133  RH  067%=      5-min Rain = 0
KBY1 161503Z 06002KT 20/13 A301 RMK A01 T01950134  RH  068%=      5-min Rain = 0
KBY1 161504Z 07001KT 19/13 A301 RMK A01 T01940134  RH  068%=      5-min Rain = 0
KBY1 161505Z 05001KT 19/13 A3009 RMK A01 T01940133  RH  067%=      5-min Rain = 0
KBY1 161506Z 10001KT 19/13 A3009 RMK A01 T01940133  RH  067%=      5-min Rain = 0
KBY1 161507Z 11001KT 19/13 A3009 RMK A01 T01940132  RH  067%=      5-min Rain = 0
KBY1 161508Z 13002KT 20/13 A3009 RMK A01 T01950133  RH  067%=      5-min Rain = 0
KBY1 161509Z 12001KT 20/13 A3009 RMK A01 T01960133  RH  067%=      5-min Rain = 0
KBY1 161510Z 09001KT 20/13 A3009 RMK A01 T01960133  RH  067%=      5-min Rain = 0
KBY1 161511Z 09001KT 20/13 A3009 RMK A01 T01970133  RH  066%=      5-min Rain = 0
KBY1 161512Z 07000KT 20/13 A3009 RMK A01 T01970133  RH  066%=      5-min Rain = 0
KBY1 161513Z 08001KT 20/13 A3009 RMK A01 T01980132  RH  066%=      5-min Rain = 0
KBY1 161514Z 11001KT 20/13 A3009 RMK A01 T01990133  RH  066%=      5-min Rain = 0
KBY1 161515Z 11002KT 20/13 A3009 RMK A01 T02000132  RH  065%=      5-min Rain = 0
KBY1 161516Z 10002KT 20/13 A3009 RMK A01 T01990132  RH  065%=      5-min Rain = 0
KBY1 161517Z 08001KT 20/13 A3009 RMK A01 T01990133  RH  066%=      5-min Rain = 0
KBY1 161518Z 19000KT 20/13 A3009 RMK A01 T01990133  RH  065%=      5-min Rain = 0
KBY1 161519Z 19002KT 20/13 A3009 RMK A01 T02000134  RH  065%=      5-min Rain = 0
KBY1 161520Z 15003KT 20/14 A3009 RMK A01 T02010135  RH  066%=      5-min Rain = 0
KBY1 161521Z 18003KT 20/13 A3009 RMK A01 T02020134  RH  065%=      5-min Rain = 0
KBY1 161522Z 18002KT 20/13 A3009 RMK A01 T02030133  RH  064%=      5-min Rain = 0
KBY1 161523Z 20003KT 20/13 A3009 RMK A01 T02030133  RH  064%=      5-min Rain = 0
KBY1 161524Z 21003KT 20/13 A3009 RMK A01 T02030133  RH  064%=      5-min Rain = 0
KBY1 161525Z 20002KT 20/13 A3009 RMK A01 T02030132  RH  064%=      5-min Rain = 0
KBY1 161526Z 20003KT 20/13 A3009 RMK A01 T02030132  RH  064%=      5-min Rain = 0
KBY1 161527Z 18003KT 20/13 A3009 RMK A01 T02020132  RH  064%=      5-min Rain = 0
KBY1 161528Z 18003KT 20/13 A3009 RMK A01 T02020132  RH  064%=      5-min Rain = 0
KBY1 161529Z 18002KT 20/13 A3009 RMK A01 T02020132  RH  064%=      5-min Rain = 0
KBY1 161530Z 20002KT 20/13 A3009 RMK A01 T02020133  RH  064%=      5-min Rain = 0
KBY1 161531Z 18002KT 20/13 A3009 RMK A01 T02030133  RH  064%=      5-min Rain = 0
KBY1 161532Z 19002KT 20/13 A3009 RMK A01 T02040133  RH  063%=      5-min Rain = 0
KBY1 161533Z 20002KT 21/13 A3009 RMK A01 T02050133  RH  063%=      5-min Rain = 0
KBY1 161534Z 22002KT 21/13 A3009 RMK A01 T02050133  RH  063%=      5-min Rain = 0
KBY1 161535Z 23003KT 21/13 A3009 RMK A01 T02050133  RH  063%=      5-min Rain = 0
KBY1 161536Z 26004KT 21/13 A3009 RMK A01 T02050133  RH  063%=      5-min Rain = 0
KBY1 161537Z 26002KT 21/13 A3009 RMK A01 T02050133  RH  063%=      5-min Rain = 0
KBY1 161538Z 20003KT 21/13 A3009 RMK A01 T02050134  RH  064%=      5-min Rain = 0
KBY1 161539Z 20003KT 21/13 A3009 RMK A01 T02050133  RH  063%=      5-min Rain = 0
KBY1 161540Z 19003KT 21/13 A3009 RMK A01 T02050133  RH  063%=      5-min Rain = 0
KBY1 161541Z 19003KT 21/13 A3009 RMK A01 T02060134  RH  063%=      5-min Rain = 0
KBY1 161542Z 22003KT 21/13 A3009 RMK A01 T02060134  RH  063%=      5-min Rain = 0
KBY1 161543Z 25003KT 21/13 A3009 RMK A01 T02070133  RH  062%=      5-min Rain = 0
KBY1 161544Z 26002KT 21/13 A3009 RMK A01 T02080133  RH  062%=      5-min Rain = 0
KBY1 161545Z 27004KT 21/13 A3009 RMK A01 T02080132  RH  062%=      5-min Rain = 0
KBY1 161546Z 27002KT 21/13 A3009 RMK A01 T02080132  RH  062%=      5-min Rain = 0
KBY1 161547Z 32002KT 21/13 A3009 RMK A01 T02060131  RH  062%=      5-min Rain = 0
KBY1 161548Z 29001KT 21/13 A3009 RMK A01 T02060132  RH  062%=      5-min Rain = 0
KBY1 161549Z 23001KT 21/13 A3009 RMK A01 T02070131  RH  062%=      5-min Rain = 0
KBY1 161550Z 24003KT 21/13 A3009 RMK A01 T02080132  RH  061%=      5-min Rain = 0
KBY1 161551Z 24005KT 21/13 A3009 RMK A01 T02100131  RH  061%=      5-min Rain = 0
KBY1 161552Z 23004KT 21/13 A3009 RMK A01 T02100131  RH  061%=      5-min Rain = 0
KBY1 161553Z 24004KT 21/13 A3009 RMK A01 T02100130  RH  060%=      5-min Rain = 0
KBY1 161554Z 23004KT 21/13 A3009 RMK A01 T02100131  RH  060%=      5-min Rain = 0
KBY1 161555Z 21002KT 21/13 A3009 RMK A01 T02110132  RH  061%=      5-min Rain = 0
KBY1 161556Z 21004KT 21/13 A3008 RMK A01 T02130133  RH  060%=      5-min Rain = 0
KBY1 161557Z 21004KT 21/13 A3008 RMK A01 T02140131  RH  059%=      5-min Rain = 0
KBY1 161558Z 21002KT 22/13 A3008 RMK A01 T02150131  RH  059%=      5-min Rain = 0
KBY1 161559Z 21002KT 22/13 A3008 RMK A01 T02150132  RH  059%=      5-min Rain = 0
KBY1 161600Z 23004KT 22/13 A3008 RMK A01 T02160134  RH  060%=      5-min Rain = 0
KBY1 161601Z 24005KT 22/13 A3008 RMK A01 T02180132  RH  058%=      5-min Rain = 0
KBY1 161602Z 24005KT 22/13 A3008 RMK A01 T02190132  RH  058%=      5-min Rain = 0
KBY1 161603Z 24004KT 22/13 A3008 RMK A01 T02180132  RH  058%=      5-min Rain = 0
KBY1 161604Z 23007KT 22/13 A3008 RMK A01 T02190131  RH  057%=      5-min Rain = 0
KBY1 161605Z 22006KT 22/13 A3008 RMK A01 T02200130  RH  057%=      5-min Rain = 0
KBY1 161606Z 20008KT 22/13 A3008 RMK A01 T02200132  RH  058%=      5-min Rain = 0
KBY1 161607Z 19006KT 22/13 A3008 RMK A01 T02210131  RH  057%=      5-min Rain = 0
KBY1 161608Z 20005KT 22/13 A3008 RMK A01 T02210131  RH  057%=      5-min Rain = 0
KBY1 161609Z 20006KT 22/13 A3008 RMK A01 T02220132  RH  057%=      5-min Rain = 0
KBY1 161610Z 19005KT 22/13 A3008 RMK A01 T02210132  RH  057%=      5-min Rain = 0
KBY1 161611Z 17006KT 22/13 A3008 RMK A01 T02210132  RH  057%=      5-min Rain = 0
KBY1 161612Z 17004KT 22/13 A3008 RMK A01 T02220131  RH  056%=      5-min Rain = 0
KBY1 161613Z 17004KT 22/13 A3008 RMK A01 T02230131  RH  056%=      5-min Rain = 0
KBY1 161614Z 18004KT 23/13 A3008 RMK A01 T02250133  RH  056%=      5-min Rain = 0
KBY1 161615Z 20004KT 23/13 A3008 RMK A01 T02270133  RH  055%=      5-min Rain = 0
KBY1 161616Z 23005KT 23/13 A3008 RMK A01 T02270134  RH  056%=      5-min Rain = 0
KBY1 161617Z 24007KT 23/13 A3008 RMK A01 T02300134  RH  055%=      5-min Rain = 0
KBY1 161618Z 21006KT 23/13 A3008 RMK A01 T02310133  RH  054%=      5-min Rain = 0
KBY1 161619Z 21007KT 23/13 A3008 RMK A01 T02310134  RH  054%=      5-min Rain = 0
KBY1 161620Z 20005KT 23/13 A3008 RMK A01 T02310133  RH  054%=      5-min Rain = 0
KBY1 161621Z 22005KT 23/13 A3008 RMK A01 T02290132  RH  054%=      5-min Rain = 0
KBY1 161622Z 21005KT 23/13 A3008 RMK A01 T02280132  RH  055%=      5-min Rain = 0
KBY1 161623Z 22003KT 23/13 A3007 RMK A01 T02260131  RH  055%=      5-min Rain = 0
KBY1 161624Z 21004KT 23/13 A3007 RMK A01 T02250132  RH  055%=      5-min Rain = 0
KBY1 161625Z 18004KT 23/13 A3007 RMK A01 T02260132  RH  055%=      5-min Rain = 0
KBY1 161626Z 18003KT 23/13 A3007 RMK A01 T02270130  RH  054%=      5-min Rain = 0
KBY1 161627Z 17005KT 23/13 A3007 RMK A01 T02280133  RH  055%=      5-min Rain = 0
KBY1 161628Z 20006KT 23/13 A3007 RMK A01 T02300134  RH  055%=      5-min Rain = 0
KBY1 161629Z 22004KT 23/14 A3007 RMK A01 T02320136  RH  055%=      5-min Rain = 0
KBY1 161630Z 22006KT 23/14 A3007 RMK A01 T02340137  RH  054%=      5-min Rain = 0
KBY1 161631Z 24004KT 23/13 A3007 RMK A01 T02330134  RH  054%=      5-min Rain = 0
KBY1 161632Z 22005KT 23/14 A3007 RMK A01 T02320135  RH  054%=      5-min Rain = 0
KBY1 161633Z 24004KT 23/13 A3007 RMK A01 T02320134  RH  054%=      5-min Rain = 0
KBY1 161634Z 22006KT 23/13 A3007 RMK A01 T02320134  RH  054%=      5-min Rain = 0
KBY1 161635Z 22006KT 23/14 A3007 RMK A01 T02330137  RH  055%=      5-min Rain = 0
KBY1 161636Z 20003KT 23/14 A3007 RMK A01 T02340136  RH  054%=      5-min Rain = 0
KBY1 161637Z 20004G9KT 24/14 A3007 RMK A01 T02370139  RH  054%=      5-min Rain = 0
KBY1 161638Z 19008KT 24/14 A3007 RMK A01 T02400139  RH  053%=      5-min Rain = 0
KBY1 161639Z 21006KT 24/14 A3007 RMK A01 T02410137  RH  052%=      5-min Rain = 0
KBY1 161640Z 21008KT 24/14 A3007 RMK A01 T02400139  RH  053%=      5-min Rain = 0
KBY1 161641Z 19004KT 24/14 A3007 RMK A01 T02390136  RH  052%=      5-min Rain = 0
KBY1 161642Z 21001KT 24/13 A3007 RMK A01 T02360134  RH  053%=      5-min Rain = 0
KBY1 161643Z 14003KT 24/14 A3007 RMK A01 T02360135  RH  053%=      5-min Rain = 0
KBY1 161644Z 16001KT 24/13 A3007 RMK A01 T02360134  RH  053%=      5-min Rain = 0
KBY1 161645Z 18003KT 24/14 A3007 RMK A01 T02370137  RH  053%=      5-min Rain = 0
KBY1 161646Z 18005KT 24/14 A3007 RMK A01 T02400139  RH  053%=      5-min Rain = 0
KBY1 161647Z 21004KT 25/14 A3007 RMK A01 T02460141  RH  052%=      5-min Rain = 0
KBY1 161648Z 17006KT 25/14 A3007 RMK A01 T02480138  RH  050%=      5-min Rain = 0
KBY1 161649Z 15004KT 24/14 A3007 RMK A01 T02440136  RH  051%=      5-min Rain = 0
KBY1 161650Z 16001KT 24/14 A3007 RMK A01 T02400136  RH  052%=      5-min Rain = 0
KBY1 161651Z 15004KT 24/14 A3006 RMK A01 T02400137  RH  053%=      5-min Rain = 0
KBY1 161652Z 16005KT 24/14 A3006 RMK A01 T02420139  RH  052%=      5-min Rain = 0
KBY1 161653Z 15006KT 24/14 A3006 RMK A01 T02440139  RH  052%=      5-min Rain = 0
KBY1 161654Z 15005KT 25/14 A3006 RMK A01 T02450139  RH  052%=      5-min Rain = 0
KBY1 161655Z 17008KT 25/14 A3006 RMK A01 T02450141  RH  052%=      5-min Rain = 0
KBY1 161656Z 18006KT 25/14 A3007 RMK A01 T02470140  RH  051%=      5-min Rain = 0
KBY1 161657Z 20004KT 25/14 A3007 RMK A01 T02460139  RH  051%=      5-min Rain = 0
KBY1 161658Z 16006KT 25/14 A3007 RMK A01 T02470141  RH  052%=      5-min Rain = 0
KBY1 161659Z 15005KT 25/14 A3007 RMK A01 T02480139  RH  051%=      5-min Rain = 0
KBY1 161700Z 13005KT 25/14 A3006 RMK A01 T02470140  RH  051%=      5-min Rain = 0
KBY1 161701Z 11005KT 25/14 A3006 RMK A01 T02480140  RH  051%=      5-min Rain = 0
KBY1 161702Z 13004KT 25/14 A3006 RMK A01 T02470139  RH  051%=      5-min Rain = 0
KBY1 161703Z 12002KT 25/14 A3006 RMK A01 T02470138  RH  051%=      5-min Rain = 0
KBY1 161704Z 16005KT 25/14 A3006 RMK A01 T02470140  RH  052%=      5-min Rain = 0
KBY1 161705Z 15006KT 25/14 A3006 RMK A01 T02490143  RH  052%=      5-min Rain = 0
KBY1 161706Z 17008KT 25/14 A3006 RMK A01 T02530144  RH  051%=      5-min Rain = 0
KBY1 161707Z 16007KT 25/14 A3006 RMK A01 T02540142  RH  050%=      5-min Rain = 0
KBY1 161708Z 16004KT 25/14 A3006 RMK A01 T02540141  RH  050%=      5-min Rain = 0
KBY1 161709Z 18003KT 25/14 A3006 RMK A01 T02540143  RH  050%=      5-min Rain = 0
KBY1 161710Z 18006KT 26/14 A3006 RMK A01 T02550142  RH  050%=      5-min Rain = 0
KBY1 161711Z 17002KT 25/14 A3006 RMK A01 T02530141  RH  050%=      5-min Rain = 0
KBY1 161712Z 24003KT 25/14 A3006 RMK A01 T02510141  RH  050%=      5-min Rain = 0
KBY1 161713Z 27004KT 25/14 A3006 RMK A01 T02510142  RH  051%=      5-min Rain = 0
KBY1 161714Z 28004KT 25/14 A3006 RMK A01 T02510140  RH  050%=      5-min Rain = 0
KBY1 161715Z 24005KT 25/14 A3006 RMK A01 T02490141  RH  051%=      5-min Rain = 0
KBY1 161716Z 26004KT 25/14 A3006 RMK A01 T02480140  RH  051%=      5-min Rain = 0
KBY1 161717Z 26004KT 25/14 A3006 RMK A01 T02480141  RH  052%=      5-min Rain = 0
KBY1 161718Z 26004KT 25/14 A3006 RMK A01 T02480141  RH  051%=      5-min Rain = 0
KBY1 161719Z 26004KT 25/14 A3006 RMK A01 T02490141  RH  051%=      5-min Rain = 0
KBY1 161720Z 23002KT 25/14 A3006 RMK A01 T02520143  RH  051%=      5-min Rain = 0
KBY1 161721Z 11001KT 26/14 A3006 RMK A01 T02550143  RH  050%=      5-min Rain = 0
KBY1 161722Z 15002KT 26/15 A3006 RMK A01 T02590145  RH  049%=      5-min Rain = 0
KBY1 161723Z 15006KT 26/15 A3006 RMK A01 T02630146  RH  049%=      5-min Rain = 0
KBY1 161724Z 14007KT 26/15 A3006 RMK A01 T02640145  RH  048%=      5-min Rain = 0
KBY1 161725Z 14004KT 26/14 A3006 RMK A01 T02610143  RH  048%=      5-min Rain = 0
KBY1 161726Z 12003KT 26/14 A3006 RMK A01 T02590144  RH  049%=      5-min Rain = 0
KBY1 161727Z 10000KT 26/14 A3006 RMK A01 T02590142  RH  049%=      5-min Rain = 0
KBY1 161728Z 27000KT 26/14 A3006 RMK A01 T02580142  RH  049%=      5-min Rain = 0
KBY1 161729Z 18003KT 26/14 A3006 RMK A01 T02590144  RH  049%=      5-min Rain = 0
KBY1 161730Z 20003KT 26/14 A3006 RMK A01 T02610144  RH  049%=      5-min Rain = 0
KBY1 161731Z 23006KT 26/14 A3006 RMK A01 T02620144  RH  048%=      5-min Rain = 0
KBY1 161732Z 25005KT 26/15 A3006 RMK A01 T02630145  RH  048%=      5-min Rain = 0
KBY1 161733Z 23006KT 27/15 A3006 RMK A01 T02660145  RH  047%=      5-min Rain = 0
KBY1 161734Z 22006KT 27/15 A3006 RMK A01 T02660145  RH  047%=      5-min Rain = 0
KBY1 161735Z 20005KT 26/14 A3006 RMK A01 T02630144  RH  048%=      5-min Rain = 0
KBY1 161736Z 15004KT 26/15 A3006 RMK A01 T02630145  RH  048%=      5-min Rain = 0
KBY1 161737Z 15006KT 26/14 A3006 RMK A01 T02630144  RH  048%=      5-min Rain = 0
KBY1 161738Z 17004KT 26/14 A3006 RMK A01 T02610143  RH  048%=      5-min Rain = 0
KBY1 161739Z 22005KT 26/14 A3006 RMK A01 T02580144  RH  049%=      5-min Rain = 0
KBY1 161740Z 20005KT 26/15 A3006 RMK A01 T02580145  RH  050%=      5-min Rain = 0
KBY1 161741Z 20005KT 26/15 A3006 RMK A01 T02580145  RH  050%=      5-min Rain = 0
KBY1 161742Z 19005KT 26/15 A3006 RMK A01 T02580145  RH  050%=      5-min Rain = 0
KBY1 161743Z 20006KT 26/14 A3006 RMK A01 T02580144  RH  049%=      5-min Rain = 0
KBY1 161744Z 22006KT 26/14 A3006 RMK A01 T02580144  RH  049%=      5-min Rain = 0
KBY1 161745Z 21003KT 26/14 A3006 RMK A01 T02560142  RH  049%=      5-min Rain = 0
KBY1 161746Z 18002KT 25/14 A3006 RMK A01 T02540143  RH  050%=      5-min Rain = 0
KBY1 161747Z 20002KT 25/14 A3006 RMK A01 T02530142  RH  050%=      5-min Rain = 0
KBY1 161748Z 21002KT 25/14 A3006 RMK A01 T02530143  RH  050%=      5-min Rain = 0
KBY1 161749Z 22000KT 25/14 A3006 RMK A01 T02530144  RH  051%=      5-min Rain = 0
KBY1 161750Z 11002KT 26/14 A3006 RMK A01 T02550144  RH  050%=      5-min Rain = 0
KBY1 161751Z 12002KT 26/14 A3006 RMK A01 T02560143  RH  050%=      5-min Rain = 0
KBY1 161752Z 17002KT 26/14 A3006 RMK A01 T02560143  RH  050%=      5-min Rain = 0
KBY1 161753Z 23003KT 26/14 A3006 RMK A01 T02550144  RH  050%=      5-min Rain = 0
KBY1 161754Z 23003KT 26/14 A3006 RMK A01 T02550144  RH  050%=      5-min Rain = 0
KBY1 161755Z 21001KT 26/14 A3006 RMK A01 T02560143  RH  050%=      5-min Rain = 0
KBY1 161756Z 12002KT 26/14 A3005 RMK A01 T02560143  RH  050%=      5-min Rain = 0
KBY1 161757Z 13002KT 26/14 A3005 RMK A01 T02560142  RH  049%=      5-min Rain = 0
KBY1 161758Z 17001KT 26/14 A3005 RMK A01 T02550142  RH  050%=      5-min Rain = 0
KBY1 161759Z 18003KT 26/14 A3005 RMK A01 T02550143  RH  050%=      5-min Rain = 0
KBY1 161800Z 15004KT 26/15 A3005 RMK A01 T02580145  RH  049%=      5-min Rain = 0
KBY1 161801Z 15006KT 26/14 A3006 RMK A01 T02600143  RH  048%=      5-min Rain = 0
KBY1 161802Z 14006KT 26/14 A3005 RMK A01 T02620144  RH  048%=      5-min Rain = 0
KBY1 161803Z 15004KT 26/14 A3005 RMK A01 T02630143  RH  048%=      5-min Rain = 0
KBY1 161804Z 17006KT 26/15 A3005 RMK A01 T02640145  RH  048%=      5-min Rain = 0
KBY1 161805Z 18006KT 27/15 A3005 RMK A01 T02650145  RH  048%=      5-min Rain = 0
KBY1 161806Z 19007KT 27/15 A3005 RMK A01 T02650145  RH  047%=      5-min Rain = 0
KBY1 161807Z 20007KT 27/15 A3005 RMK A01 T02650145  RH  048%=      5-min Rain = 0
KBY1 161808Z 19007KT 26/15 A3005 RMK A01 T02640145  RH  048%=      5-min Rain = 0
KBY1 161809Z 18008KT 26/14 A3005 RMK A01 T02640144  RH  048%=      5-min Rain = 0
KBY1 161810Z 18006KT 26/14 A3005 RMK A01 T02610144  RH  049%=      5-min Rain = 0
KBY1 161811Z 18009KT 26/14 A3005 RMK A01 T02610144  RH  049%=      5-min Rain = 0
KBY1 161812Z 17005KT 26/14 A3005 RMK A01 T02600143  RH  048%=      5-min Rain = 0
KBY1 161813Z 16008KT 26/14 A3005 RMK A01 T02600144  RH  049%=      5-min Rain = 0
KBY1 161814Z 17007KT 26/15 A3005 RMK A01 T02610146  RH  049%=      5-min Rain = 0
KBY1 161815Z 15005KT 26/15 A3005 RMK A01 T02640145  RH  048%=      5-min Rain = 0
KBY1 161816Z 17008KT 27/15 A3005 RMK A01 T02670146  RH  047%=      5-min Rain = 0
KBY1 161817Z 19010KT 27/15 A3005 RMK A01 T02690147  RH  047%=      5-min Rain = 0
KBY1 161818Z 18008KT 27/15 A3005 RMK A01 T02730148  RH  046%=      5-min Rain = 0
KBY1 161819Z 17007KT 27/15 A3005 RMK A01 T02730146  RH  046%=      5-min Rain = 0
KBY1 161820Z 17005KT 27/15 A3005 RMK A01 T02700146  RH  046%=      5-min Rain = 0
KBY1 161821Z 20007G13KT 27/15 A3005 RMK A01 T02690145  RH  047%=      5-min Rain = 0
KBY1 161822Z 21008KT 27/14 A3005 RMK A01 T02680144  RH  047%=      5-min Rain = 0
KBY1 161823Z 19009KT 26/14 A3005 RMK A01 T02640143  RH  047%=      5-min Rain = 0
KBY1 161824Z 19010KT 26/14 A3005 RMK A01 T02640144  RH  048%=      5-min Rain = 0
KBY1 161825Z 22010G17KT 27/15 A3005 RMK A01 T02660145  RH  047%=      5-min Rain = 0
KBY1 161826Z 20010KT 27/15 A3005 RMK A01 T02700149  RH  047%=      5-min Rain = 0
KBY1 161827Z 21012KT 28/15 A3005 RMK A01 T02750147  RH  046%=      5-min Rain = 0
KBY1 161828Z 21010KT 28/15 A3005 RMK A01 T02750147  RH  045%=      5-min Rain = 0
KBY1 161829Z 20009KT 28/15 A3005 RMK A01 T02760148  RH  045%=      5-min Rain = 0
KBY1 161830Z 17008KT 28/15 A3005 RMK A01 T02780148  RH  045%=      5-min Rain = 0
KBY1 161831Z 16005KT 28/15 A3005 RMK A01 T02780145  RH  044%=      5-min Rain = 0
KBY1 161832Z 17003KT 28/14 A3005 RMK A01 T02750144  RH  045%=      5-min Rain = 0
KBY1 161833Z 18004KT 27/14 A3005 RMK A01 T02730144  RH  045%=      5-min Rain = 0
KBY1 161834Z 16010G15KT 27/15 A3005 RMK A01 T02730145  RH  045%=      5-min Rain = 0
KBY1 161835Z 18010KT 27/15 A3004 RMK A01 T02740147  RH  046%=      5-min Rain = 0
KBY1 161836Z 18010KT 28/15 A3005 RMK A01 T02780147  RH  045%=      5-min Rain = 0
KBY1 161837Z 17009KT 28/15 A3004 RMK A01 T02780145  RH  044%=      5-min Rain = 0
KBY1 161838Z 20011KT 28/15 A3004 RMK A01 T02750145  RH  045%=      5-min Rain = 0
KBY1 161839Z 18009KT 27/14 A3004 RMK A01 T02730144  RH  045%=      5-min Rain = 0
KBY1 161840Z 20004G9KT 27/14 A3004 RMK A01 T02730144  RH  045%=      5-min Rain = 0
KBY1 161841Z 22007KT 27/14 A3004 RMK A01 T02730142  RH  045%=      5-min Rain = 0
KBY1 161842Z 23003KT 27/14 A3004 RMK A01 T02710143  RH  045%=      5-min Rain = 0
KBY1 161843Z 18007KT 27/14 A3004 RMK A01 T02730143  RH  045%=      5-min Rain = 0
KBY1 161844Z 17008KT 27/14 A3004 RMK A01 T02730143  RH  045%=      5-min Rain = 0
KBY1 161845Z 19007KT 27/14 A3004 RMK A01 T02720143  RH  045%=      5-min Rain = 0
KBY1 161846Z 18007KT 27/14 A3004 RMK A01 T02710142  RH  045%=      5-min Rain = 0
KBY1 161847Z 18007KT 27/14 A3004 RMK A01 T02710143  RH  046%=      5-min Rain = 0
KBY1 161848Z 17004KT 27/14 A3004 RMK A01 T02720141  RH  044%=      5-min Rain = 0
KBY1 161849Z 21007KT 27/14 A3004 RMK A01 T02710143  RH  045%=      5-min Rain = 0
KBY1 161850Z 19006KT 27/14 A3004 RMK A01 T02710142  RH  045%=      5-min Rain = 0
KBY1 161851Z 15011KT 27/15 A3004 RMK A01 T02710145  RH  046%=      5-min Rain = 0
KBY1 161852Z 17011KT 27/14 A3004 RMK A01 T02730144  RH  045%=      5-min Rain = 0
KBY1 161853Z 17006KT 28/14 A3004 RMK A01 T02750142  RH  044%=      5-min Rain = 0
KBY1 161854Z 19007KT 28/15 A3004 RMK A01 T02750145  RH  045%=      5-min Rain = 0
KBY1 161855Z 19006KT 28/14 A3004 RMK A01 T02770144  RH  044%=      5-min Rain = 0
KBY1 161856Z 17007KT 28/15 A3004 RMK A01 T02780146  RH  044%=      5-min Rain = 0
KBY1 161857Z 19010KT 28/15 A3004 RMK A01 T02810145  RH  043%=      5-min Rain = 0
KBY1 161858Z 17008KT 28/14 A3004 RMK A01 T02810144  RH  043%=      5-min Rain = 0
KBY1 161859Z 16007KT 28/14 A3004 RMK A01 T02780143  RH  044%=      5-min Rain = 0
KBY1 161900Z 15007KT 28/15 A3004 RMK A01 T02800145  RH  044%=      5-min Rain = 0
KBY1 161901Z 15006KT 28/14 A3004 RMK A01 T02820143  RH  043%=      5-min Rain = 0
KBY1 161902Z 19007KT 28/14 A3003 RMK A01 T02810144  RH  043%=      5-min Rain = 0
KBY1 161903Z 20009KT 28/14 A3003 RMK A01 T02800143  RH  043%=      5-min Rain = 0
KBY1 161904Z 17007KT 28/14 A3003 RMK A01 T02780143  RH  044%=      5-min Rain = 0
KBY1 161905Z 14010KT 28/14 A3003 RMK A01 T02770142  RH  043%=      5-min Rain = 0
KBY1 161906Z 14009KT 28/14 A3004 RMK A01 T02780143  RH  043%=      5-min Rain = 0
KBY1 161907Z 15009KT 28/14 A3003 RMK A01 T02790142  RH  043%=      5-min Rain = 0
KBY1 161908Z 15007KT 28/14 A3003 RMK A01 T02770142  RH  043%=      5-min Rain = 0
KBY1 161909Z 17010KT 28/14 A3003 RMK A01 T02780144  RH  044%=      5-min Rain = 0
KBY1 161910Z 19011KT 28/14 A3003 RMK A01 T02810142  RH  043%=      5-min Rain = 0
KBY1 161911Z 21007KT 28/15 A3003 RMK A01 T02820145  RH  043%=      5-min Rain = 0
KBY1 161912Z 22007KT 28/14 A3003 RMK A01 T02830142  RH  042%=      5-min Rain = 0
KBY1 161913Z 19005KT 28/14 A3003 RMK A01 T02800140  RH  042%=      5-min Rain = 0
KBY1 161914Z 17008KT 28/14 A3003 RMK A01 T02790141  RH  043%=      5-min Rain = 0
KBY1 161915Z 15008KT 28/14 A3003 RMK A01 T02780141  RH  043%=      5-min Rain = 0
KBY1 161916Z 17010KT 28/14 A3003 RMK A01 T02780142  RH  043%=      5-min Rain = 0
KBY1 161917Z 17008KT 28/14 A3003 RMK A01 T02800141  RH  043%=      5-min Rain = 0
KBY1 161918Z 17007KT 28/14 A3003 RMK A01 T02800141  RH  042%=      5-min Rain = 0
KBY1 161919Z 16004KT 28/14 A3003 RMK A01 T02780140  RH  043%=      5-min Rain = 0
KBY1 161920Z 11003KT 28/14 A3003 RMK A01 T02780139  RH  042%=      5-min Rain = 0
KBY1 161921Z 09002KT 28/14 A3003 RMK A01 T02780139  RH  042%=      5-min Rain = 0
KBY1 161922Z 12002KT 28/14 A3003 RMK A01 T02770140  RH  043%=      5-min Rain = 0
KBY1 161923Z 15005KT 28/14 A3003 RMK A01 T02780140  RH  043%=      5-min Rain = 0
KBY1 161924Z 19006KT 28/14 A3003 RMK A01 T02790141  RH  043%=      5-min Rain = 0
KBY1 161925Z 17007KT 28/14 A3003 RMK A01 T02800142  RH  043%=      5-min Rain = 0
KBY1 161926Z 16008KT 28/14 A3003 RMK A01 T02780141  RH  043%=      5-min Rain = 0
KBY1 161927Z 15004KT 28/14 A3003 RMK A01 T02780139  RH  042%=      5-min Rain = 0
KBY1 161928Z 19003KT 28/14 A3003 RMK A01 T02790138  RH  042%=      5-min Rain = 0
KBY1 161929Z 19011G16KT 28/14 A3003 RMK A01 T02780141  RH  043%=      5-min Rain = 0
KBY1 161930Z 23009KT 28/14 A3003 RMK A01 T02770139  RH  043%=      5-min Rain = 0
KBY1 161931Z 22010KT 27/14 A3003 RMK A01 T02740137  RH  043%=      5-min Rain = 0
KBY1 161932Z 22009KT 27/14 A3003 RMK A01 T02730137  RH  043%=      5-min Rain = 0
KBY1 161933Z 21006G11KT 27/14 A3003 RMK A01 T02720137  RH  043%=      5-min Rain = 0
KBY1 161934Z 25004KT 27/14 A3003 RMK A01 T02730138  RH  043%=      5-min Rain = 0
KBY1 161935Z 27004KT 28/14 A3003 RMK A01 T02750136  RH  042%=      5-min Rain = 0
KBY1 161936Z 26005KT 28/14 A3003 RMK A01 T02750136  RH  042%=      5-min Rain = 0
KBY1 161937Z 23003KT 27/14 A3003 RMK A01 T02730136  RH  043%=      5-min Rain = 0
KBY1 161938Z 18004KT 27/14 A3003 RMK A01 T02740138  RH  043%=      5-min Rain = 0
KBY1 161939Z 17006KT 28/14 A3003 RMK A01 T02750138  RH  043%=      5-min Rain = 0
KBY1 161940Z 17007KT 28/14 A3003 RMK A01 T02760140  RH  043%=      5-min Rain = 0
KBY1 161941Z 19008KT 28/14 A3003 RMK A01 T02810142  RH  043%=      5-min Rain = 0
KBY1 161942Z 18005KT 28/14 A3003 RMK A01 T02830140  RH  041%=      5-min Rain = 0
KBY1 161943Z 19007KT 28/14 A3002 RMK A01 T02840141  RH  042%=      5-min Rain = 0
KBY1 161944Z 21010KT 29/14 A3002 RMK A01 T02860141  RH  041%=      5-min Rain = 0
KBY1 161945Z 24009KT 29/14 A3002 RMK A01 T02870139  RH  040%=      5-min Rain = 0
KBY1 161946Z 23006KT 29/14 A3003 RMK A01 T02850138  RH  041%=      5-min Rain = 0
KBY1 161947Z 21006KT 29/14 A3003 RMK A01 T02850137  RH  040%=      5-min Rain = 0
KBY1 161948Z 26001KT 28/14 A3003 RMK A01 T02800135  RH  041%=      5-min Rain = 0
KBY1 161949Z 33002KT 28/14 A3002 RMK A01 T02780135  RH  041%=      5-min Rain = 0
KBY1 161950Z 17002G9KT 28/13 A3003 RMK A01 T02780134  RH  041%=      5-min Rain = 0
KBY1 161951Z 19009KT 28/14 A3002 RMK A01 T02780138  RH  042%=      5-min Rain = 0
KBY1 161952Z 19008KT 28/14 A3002 RMK A01 T02800138  RH  042%=      5-min Rain = 0
KBY1 161953Z 19006KT 28/14 A3002 RMK A01 T02800137  RH  041%=      5-min Rain = 0
KBY1 161954Z 19006KT 28/14 A3002 RMK A01 T02790136  RH  041%=      5-min Rain = 0
KBY1 161955Z 20006KT 28/14 A3002 RMK A01 T02800139  RH  042%=      5-min Rain = 0
KBY1 161956Z 17006KT 28/14 A3002 RMK A01 T02830136  RH  040%=      5-min Rain = 0
KBY1 161957Z 17007KT 28/14 A3002 RMK A01 T02840138  RH  041%=      5-min Rain = 0
KBY1 161958Z 18007KT 28/14 A3002 RMK A01 T02830138  RH  041%=      5-min Rain = 0
KBY1 161959Z 17006KT 28/14 A3002 RMK A01 T02820136  RH  041%=      5-min Rain = 0
KBY1 162000Z 19005KT 28/14 A3002 RMK A01 T02800135  RH  041%=      5-min Rain = 0
KBY1 162001Z 21011KT 28/14 A3002 RMK A01 T02800137  RH  041%=      5-min Rain = 0
KBY1 162002Z 21011KT 28/14 A3002 RMK A01 T02790135  RH  041%=      5-min Rain = 0
KBY1 162003Z 21007KT 28/13 A3002 RMK A01 T02750133  RH  042%=      5-min Rain = 0
KBY1 162004Z 20004KT 27/13 A3002 RMK A01 T02730134  RH  042%=      5-min Rain = 0
KBY1 162005Z 17002KT 27/13 A3002 RMK A01 T02740133  RH  042%=      5-min Rain = 0
KBY1 162006Z 14003KT 28/13 A3002 RMK A01 T02760133  RH  042%=      5-min Rain = 0
KBY1 162007Z 16003KT 28/13 A3002 RMK A01 T02760133  RH  041%=      5-min Rain = 0
KBY1 162008Z 13000KT 28/13 A3002 RMK A01 T02760132  RH  041%=      5-min Rain = 0
KBY1 162009Z 24000KT 28/13 A3002 RMK A01 T02760133  RH  041%=      5-min Rain = 0
KBY1 162010Z 12001KT 28/13 A3002 RMK A01 T02750134  RH  042%=      5-min Rain = 0
KBY1 162011Z 16007KT 28/14 A3002 RMK A01 T02760135  RH  042%=      5-min Rain = 0
KBY1 162012Z 17009KT 28/14 A3002 RMK A01 T02770137  RH  042%=      5-min Rain = 0
KBY1 162013Z 17007KT 28/14 A3002 RMK A01 T02770136  RH  042%=      5-min Rain = 0
KBY1 162014Z 18009KT 28/14 A3002 RMK A01 T02770137  RH  042%=      5-min Rain = 0
KBY1 162015Z 19009KT 28/14 A3002 RMK A01 T02760135  RH  042%=      5-min Rain = 0
KBY1 162016Z 19006KT 27/13 A3002 RMK A01 T02740134  RH  042%=      5-min Rain = 0
KBY1 162017Z 16008KT 27/14 A3002 RMK A01 T02730136  RH  043%=      5-min Rain = 0
KBY1 162018Z 15003KT 27/13 A3002 RMK A01 T02730134  RH  042%=      5-min Rain = 0
KBY1 162019Z 15010KT 27/14 A3002 RMK A01 T02740135  RH  042%=      5-min Rain = 0
KBY1 162020Z 17008KT 28/14 A3002 RMK A01 T02780140  RH  043%=      5-min Rain = 0
KBY1 162021Z 16006KT 28/14 A3002 RMK A01 T02830137  RH  041%=      5-min Rain = 0
KBY1 162022Z 16002KT 28/14 A3001 RMK A01 T02840138  RH  041%=      5-min Rain = 0
KBY1 162023Z 16007KT 29/14 A3001 RMK A01 T02880139  RH  040%=      5-min Rain = 0
KBY1 162024Z 17008KT 29/14 A3001 RMK A01 T02900138  RH  039%=      5-min Rain = 0
KBY1 162025Z 17004KT 29/14 A3001 RMK A01 T02900138  RH  039%=      5-min Rain = 0
KBY1 162026Z 14004KT 29/14 A3001 RMK A01 T02900139  RH  039%=      5-min Rain = 0
KBY1 162027Z 17009KT 29/14 A3001 RMK A01 T02920139  RH  039%=      5-min Rain = 0
KBY1 162028Z 19007KT 29/14 A3001 RMK A01 T02930138  RH  039%=      5-min Rain = 0
KBY1 162029Z 18007KT 29/14 A3001 RMK A01 T02930140  RH  039%=      5-min Rain = 0
KBY1 162030Z 18008KT 29/14 A3001 RMK A01 T02940139  RH  039%=      5-min Rain = 0
KBY1 162031Z 19007KT 29/14 A3001 RMK A01 T02930139  RH  039%=      5-min Rain = 0
KBY1 162032Z 18007KT 29/14 A3001 RMK A01 T02920140  RH  039%=      5-min Rain = 0
KBY1 162033Z 18010KT 29/14 A3001 RMK A01 T02910139  RH  039%=      5-min Rain = 0
KBY1 162034Z 19011KT 29/14 A3001 RMK A01 T02910139  RH  039%=      5-min Rain = 0
KBY1 162035Z 20008G13KT 29/14 A3001 RMK A01 T02890139  RH  040%=      5-min Rain = 0
KBY1 162036Z 20009KT 29/14 A3001 RMK A01 T02900140  RH  040%=      5-min Rain = 0
KBY1 162037Z 19011KT 29/14 A3001 RMK A01 T02890138  RH  040%=      5-min Rain = 0
KBY1 162038Z 20011KT 29/14 A3001 RMK A01 T02880137  RH  040%=      5-min Rain = 0
KBY1 162039Z 18010KT 29/14 A3001 RMK A01 T02880137  RH  040%=      5-min Rain = 0
KBY1 162040Z 18009KT 29/14 A3001 RMK A01 T02880138  RH  040%=      5-min Rain = 0
KBY1 162041Z 19009G14KT 29/14 A3001 RMK A01 T02920139  RH  039%=      5-min Rain = 0
KBY1 162042Z 20009KT 29/14 A3001 RMK A01 T02930138  RH  039%=      5-min Rain = 0
KBY1 162043Z 20008KT 29/14 A3001 RMK A01 T02930137  RH  038%=      5-min Rain = 0
KBY1 162044Z 19007KT 29/14 A3001 RMK A01 T02920136  RH  038%=      5-min Rain = 0
KBY1 162045Z 21006KT 29/14 A3001 RMK A01 T02910137  RH  039%=      5-min Rain = 0
KBY1 162046Z 19007KT 29/14 A3001 RMK A01 T02910138  RH  039%=      5-min Rain = 0
KBY1 162047Z 18004KT 29/14 A30 RMK A01 T02920138  RH  039%=      5-min Rain = 0
KBY1 162048Z 17004KT 29/14 A30 RMK A01 T02920139  RH  039%=      5-min Rain = 0
KBY1 162049Z 17006KT 29/14 A30 RMK A01 T02930139  RH  039%=      5-min Rain = 0
KBY1 162050Z 20007G12KT 29/14 A30 RMK A01 T02920138  RH  039%=      5-min Rain = 0
KBY1 162051Z 23009KT 29/14 A30 RMK A01 T02930137  RH  038%=      5-min Rain = 0
KBY1 162052Z 25007KT 29/13 A30 RMK A01 T02930133  RH  038%=      5-min Rain = 0
KBY1 162053Z 24008KT 29/13 A30 RMK A01 T02900133  RH  038%=      5-min Rain = 0
KBY1 162054Z 21008KT 29/13 A30 RMK A01 T02890134  RH  039%=      5-min Rain = 0
KBY1 162055Z 21005KT 29/14 A30 RMK A01 T02880135  RH  039%=      5-min Rain = 0
KBY1 162056Z 21002KT 29/13 A30 RMK A01 T02870134  RH  039%=      5-min Rain = 0
KBY1 162057Z 23001KT 29/14 A30 RMK A01 T02900135  RH  039%=      5-min Rain = 0
KBY1 162058Z 16002KT 29/14 A30 RMK A01 T02930136  RH  038%=      5-min Rain = 0
KBY1 162059Z 20004KT 30/14 A30 RMK A01 T02960138  RH  038%=      5-min Rain = 0
KBY1 162100Z 21008KT 30/14 A30 RMK A01 T02970139  RH  038%=      5-min Rain = 0
KBY1 162101Z 22012KT 30/14 A30 RMK A01 T02980137  RH  037%=      5-min Rain = 0
KBY1 162102Z 22009KT 29/14 A30 RMK A01 T02940135  RH  038%=      5-min Rain = 0
KBY1 162103Z 21007KT 29/14 A30 RMK A01 T02910135  RH  038%=      5-min Rain = 0
KBY1 162104Z 21006KT 29/14 A30 RMK A01 T02890135  RH  039%=      5-min Rain = 0
KBY1 162105Z 18003KT 29/13 A30 RMK A01 T02880134  RH  039%=      5-min Rain = 0
KBY1 162106Z 18008KT 29/14 A30 RMK A01 T02890136  RH  039%=      5-min Rain = 0
KBY1 162107Z 19009G14KT 29/14 A30 RMK A01 T02900137  RH  039%=      5-min Rain = 0
KBY1 162108Z 15011KT 29/14 A30 RMK A01 T02910137  RH  039%=      5-min Rain = 0
KBY1 162109Z 17011KT 29/14 A30 RMK A01 T02900139  RH  040%=      5-min Rain = 0
KBY1 162110Z 19010KT 29/14 A30 RMK A01 T02900138  RH  039%=      5-min Rain = 0
KBY1 162111Z 19007KT 29/14 A30 RMK A01 T02880137  RH  040%=      5-min Rain = 0
KBY1 162112Z 19006G12KT 29/14 A30 RMK A01 T02860136  RH  040%=      5-min Rain = 0
KBY1 162113Z 17010KT 29/14 A30 RMK A01 T02860137  RH  040%=      5-min Rain = 0
KBY1 162114Z 18007KT 29/14 A30 RMK A01 T02860137  RH  040%=      5-min Rain = 0
KBY1 162115Z 15005KT 29/14 A30 RMK A01 T02860138  RH  040%=      5-min Rain = 0
KBY1 162116Z 13005KT 29/14 A30 RMK A01 T02870137  RH  040%=      5-min Rain = 0
KBY1 162117Z 13003KT 29/14 A30 RMK A01 T02870136  RH  039%=      5-min Rain = 0
KBY1 162118Z 11002KT 29/14 A2999 RMK A01 T02860135  RH  040%=      5-min Rain = 0
KBY1 162119Z 12004KT 29/14 A2999 RMK A01 T02860136  RH  040%=      5-min Rain = 0
KBY1 162120Z 14005G10KT 29/14 A2999 RMK A01 T02850136  RH  040%=      5-min Rain = 0
KBY1 162121Z 14006KT 29/14 A2999 RMK A01 T02850136  RH  040%=      5-min Rain = 0
KBY1 162122Z 16009KT 29/14 A2999 RMK A01 T02850138  RH  040%=      5-min Rain = 0
KBY1 162123Z 16008KT 29/14 A2999 RMK A01 T02870139  RH  040%=      5-min Rain = 0
KBY1 162124Z 20007KT 29/14 A2999 RMK A01 T02890139  RH  040%=      5-min Rain = 0
KBY1 162125Z 20010KT 29/14 A2999 RMK A01 T02900138  RH  039%=      5-min Rain = 0
KBY1 162126Z 22006KT 29/14 A2999 RMK A01 T02890136  RH  039%=      5-min Rain = 0
KBY1 162127Z 19007G12KT 29/14 A2999 RMK A01 T02880137  RH  040%=      5-min Rain = 0
KBY1 162128Z 19011KT 29/14 A2999 RMK A01 T02900139  RH  040%=      5-min Rain = 0
KBY1 162129Z 19010KT 29/14 A2999 RMK A01 T02920137  RH  039%=      5-min Rain = 0
KBY1 162130Z 20009KT 29/14 A2999 RMK A01 T02930137  RH  039%=      5-min Rain = 0
KBY1 162131Z 20010KT 29/14 A2999 RMK A01 T02910135  RH  038%=      5-min Rain = 0
KBY1 162132Z 20007KT 29/13 A2999 RMK A01 T02880134  RH  039%=      5-min Rain = 0
KBY1 162133Z 20006KT 29/14 A2999 RMK A01 T02860136  RH  040%=      5-min Rain = 0
KBY1 162134Z 18009KT 29/14 A2999 RMK A01 T02890136  RH  039%=      5-min Rain = 0
KBY1 162135Z 16009KT 29/14 A2999 RMK A01 T02890136  RH  039%=      5-min Rain = 0
KBY1 162136Z 18009KT 29/14 A2998 RMK A01 T02890137  RH  039%=      5-min Rain = 0
KBY1 162137Z 17011KT 29/14 A2998 RMK A01 T02930138  RH  039%=      5-min Rain = 0
KBY1 162138Z 17006KT 30/14 A2999 RMK A01 T02950135  RH  038%=      5-min Rain = 0
KBY1 162139Z 16008KT 29/14 A2999 RMK A01 T02920136  RH  038%=      5-min Rain = 0
KBY1 162140Z 16005KT 29/14 A2998 RMK A01 T02900135  RH  038%=      5-min Rain = 0
KBY1 162141Z 18007KT 29/14 A2998 RMK A01 T02880135  RH  039%=      5-min Rain = 0
KBY1 162142Z 17008KT 29/14 A2998 RMK A01 T02860136  RH  040%=      5-min Rain = 0
KBY1 162143Z 16006KT 29/14 A2998 RMK A01 T02850136  RH  040%=      5-min Rain = 0
KBY1 162144Z 19005KT 29/14 A2998 RMK A01 T02860135  RH  039%=      5-min Rain = 0
KBY1 162145Z 20003KT 29/13 A2998 RMK A01 T02860133  RH  039%=      5-min Rain = 0
KBY1 162146Z 19004KT 28/13 A2998 RMK A01 T02840134  RH  040%=      5-min Rain = 0
KBY1 162147Z 17004KT 29/13 A2998 RMK A01 T02850134  RH  039%=      5-min Rain = 0
KBY1 162148Z 16007KT 29/13 A2998 RMK A01 T02860134  RH  039%=      5-min Rain = 0
KBY1 162149Z 17010KT 29/13 A2998 RMK A01 T02880132  RH  038%=      5-min Rain = 0
KBY1 162150Z 17007KT 29/13 A2998 RMK A01 T02900131  RH  037%=      5-min Rain = 0
KBY1 162151Z 15007KT 29/13 A2998 RMK A01 T02900131  RH  038%=      5-min Rain = 0
KBY1 162152Z 15005KT 29/13 A2998 RMK A01 T02890131  RH  038%=      5-min Rain = 0
KBY1 162153Z 17005KT 29/13 A2998 RMK A01 T02890133  RH  038%=      5-min Rain = 0
KBY1 162154Z 22005KT 29/13 A2998 RMK A01 T02910134  RH  038%=      5-min Rain = 0
KBY1 162155Z 22005KT 29/13 A2998 RMK A01 T02930133  RH  038%=      5-min Rain = 0
KBY1 162156Z 19007KT 29/14 A2998 RMK A01 T02940135  RH  038%=      5-min Rain = 0
KBY1 162157Z 19007KT 30/13 A2997 RMK A01 T02960134  RH  037%=      5-min Rain = 0
KBY1 162158Z 18006KT 30/13 A2997 RMK A01 T02960133  RH  037%=      5-min Rain = 0
KBY1 162159Z 18005KT 30/13 A2997 RMK A01 T02960131  RH  036%=      5-min Rain = 0
KBY1 162200Z 19005KT 29/13 A2997 RMK A01 T02940134  RH  037%=      5-min Rain = 0
KBY1 162201Z 14005KT 30/14 A2997 RMK A01 T02950136  RH  038%=      5-min Rain = 0
KBY1 162202Z 15008KT 30/14 A2997 RMK A01 T02960137  RH  038%=      5-min Rain = 0
KBY1 162203Z 14008KT 30/14 A2997 RMK A01 T02960137  RH  038%=      5-min Rain = 0
KBY1 162204Z 13005KT 30/14 A2997 RMK A01 T02960137  RH  038%=      5-min Rain = 0
KBY1 162205Z 15004KT 30/13 A2997 RMK A01 T02970134  RH  037%=      5-min Rain = 0
KBY1 162206Z 20006KT 30/14 A2997 RMK A01 T02960136  RH  037%=      5-min Rain = 0
KBY1 162207Z 20009KT 30/13 A2997 RMK A01 T02960130  RH  036%=      5-min Rain = 0
KBY1 162208Z 20007KT 30/13 A2997 RMK A01 T02970129  RH  036%=      5-min Rain = 0
KBY1 162209Z 19007KT 30/13 A2997 RMK A01 T02970127  RH  035%=      5-min Rain = 0
KBY1 162210Z 19007KT 30/13 A2997 RMK A01 T02970127  RH  035%=      5-min Rain = 0
KBY1 162211Z 18008KT 30/13 A2997 RMK A01 T02970130  RH  036%=      5-min Rain = 0
KBY1 162212Z 18009KT 30/13 A2997 RMK A01 T02950131  RH  037%=      5-min Rain = 0
KBY1 162213Z 20006KT 30/13 A2997 RMK A01 T02950131  RH  036%=      5-min Rain = 0
KBY1 162214Z 16009KT 30/13 A2997 RMK A01 T02950133  RH  037%=      5-min Rain = 0
KBY1 162215Z 16007KT 29/13 A2997 RMK A01 T02940134  RH  037%=      5-min Rain = 0
KBY1 162216Z 17004KT 29/13 A2997 RMK A01 T02930133  RH  037%=      5-min Rain = 0
KBY1 162217Z 16003KT 29/13 A2997 RMK A01 T02930133  RH  037%=      5-min Rain = 0
KBY1 162218Z 10001KT 29/13 A2997 RMK A01 T02930132  RH  037%=      5-min Rain = 0
KBY1 162219Z 11001KT 29/13 A2996 RMK A01 T02930132  RH  037%=      5-min Rain = 0
KBY1 162220Z 16002KT 29/13 A2996 RMK A01 T02930133  RH  037%=      5-min Rain = 0
KBY1 162221Z 18005KT 30/13 A2996 RMK A01 T02950134  RH  037%=      5-min Rain = 0
KBY1 162222Z 17006KT 30/14 A2996 RMK A01 T02980138  RH  038%=      5-min Rain = 0
KBY1 162223Z 15005KT 30/13 A2996 RMK A01 T03000134  RH  036%=      5-min Rain = 0
KBY1 162224Z 16004KT 30/13 A2996 RMK A01 T03000134  RH  036%=      5-min Rain = 0
KBY1 162225Z 17010G15KT 30/14 A2996 RMK A01 T03000135  RH  036%=      5-min Rain = 0
KBY1 162226Z 17011KT 30/14 A2996 RMK A01 T02990135  RH  037%=      5-min Rain = 0
KBY1 162227Z 17008KT 30/13 A2996 RMK A01 T02960133  RH  037%=      5-min Rain = 0
KBY1 162228Z 15008KT 29/14 A2996 RMK A01 T02940135  RH  038%=      5-min Rain = 0
KBY1 162229Z 14008KT 29/13 A2996 RMK A01 T02940132  RH  037%=      5-min Rain = 0
KBY1 162230Z 15007KT 29/13 A2996 RMK A01 T02940132  RH  037%=      5-min Rain = 0
KBY1 162231Z 16010KT 29/14 A2996 RMK A01 T02940137  RH  038%=      5-min Rain = 0
KBY1 162232Z 17008KT 30/14 A2996 RMK A01 T02950136  RH  038%=      5-min Rain = 0
KBY1 162233Z 17007KT 30/13 A2996 RMK A01 T02970134  RH  037%=      5-min Rain = 0
KBY1 162234Z 16007KT 30/13 A2996 RMK A01 T02970134  RH  037%=      5-min Rain = 0
KBY1 162235Z 18006KT 30/14 A2996 RMK A01 T02970137  RH  038%=      5-min Rain = 0
KBY1 162236Z 18005KT 30/14 A2996 RMK A01 T02980136  RH  037%=      5-min Rain = 0
KBY1 162237Z 13005KT 30/14 A2996 RMK A01 T02980135  RH  037%=      5-min Rain = 0
KBY1 162238Z 13009KT 30/13 A2996 RMK A01 T02980133  RH  037%=      5-min Rain = 0
KBY1 162239Z 15007G12KT 30/14 A2996 RMK A01 T02980135  RH  037%=      5-min Rain = 0
KBY1 162240Z 17007KT 30/14 A2996 RMK A01 T02970138  RH  038%=      5-min Rain = 0
KBY1 162241Z 15009KT 30/14 A2996 RMK A01 T02980137  RH  037%=      5-min Rain = 0
KBY1 162242Z 14006KT 30/14 A2996 RMK A01 T02980136  RH  037%=      5-min Rain = 0
KBY1 162243Z 17006KT 30/14 A2996 RMK A01 T02980138  RH  038%=      5-min Rain = 0
KBY1 162244Z 18007KT 30/14 A2996 RMK A01 T03000138  RH  037%=      5-min Rain = 0
KBY1 162245Z 16003KT 30/14 A2996 RMK A01 T02980135  RH  037%=      5-min Rain = 0
KBY1 162246Z 15005KT 30/14 A2996 RMK A01 T02960135  RH  037%=      5-min Rain = 0
KBY1 162247Z 12005KT 30/14 A2996 RMK A01 T02950135  RH  037%=      5-min Rain = 0
KBY1 162248Z 09005KT 30/13 A2996 RMK A01 T02950134  RH  037%=      5-min Rain = 0
KBY1 162249Z 10006KT 30/14 A2996 RMK A01 T02950135  RH  037%=      5-min Rain = 0
KBY1 162250Z 17008KT 30/14 A2996 RMK A01 T02960135  RH  037%=      5-min Rain = 0
KBY1 162251Z 16011KT 30/14 A2996 RMK A01 T02970135  RH  037%=      5-min Rain = 0
KBY1 162252Z 18009KT 30/14 A2996 RMK A01 T02980137  RH  037%=      5-min Rain = 0
KBY1 162253Z 19006KT 30/14 A2996 RMK A01 T02980135  RH  037%=      5-min Rain = 0
KBY1 162254Z 18006KT 30/14 A2996 RMK A01 T02970137  RH  038%=      5-min Rain = 0
KBY1 162255Z 18009KT 30/14 A2996 RMK A01 T02980137  RH  037%=      5-min Rain = 0
KBY1 162256Z 17007KT 30/14 A2996 RMK A01 T02990137  RH  037%=      5-min Rain = 0
KBY1 162257Z 16008KT 30/14 A2996 RMK A01 T02990138  RH  037%=      5-min Rain = 0
KBY1 162258Z 17007KT 30/14 A2996 RMK A01 T03000136  RH  037%=      5-min Rain = 0
KBY1 162259Z 15007KT 30/14 A2996 RMK A01 T03000136  RH  037%=      5-min Rain = 0
KBY1 162300Z 15005KT 30/13 A2996 RMK A01 T02990134  RH  036%=      5-min Rain = 0
KBY1 162301Z 15005KT 30/13 A2996 RMK A01 T02980133  RH  036%=      5-min Rain = 0
KBY1 162302Z 19005KT 30/14 A2996 RMK A01 T02970135  RH  037%=      5-min Rain = 0
KBY1 162303Z 16005KT 30/14 A2996 RMK A01 T02970135  RH  037%=      5-min Rain = 0
KBY1 162304Z 15005KT 30/14 A2996 RMK A01 T02980138  RH  038%=      5-min Rain = 0
KBY1 162305Z 16004KT 30/14 A2996 RMK A01 T02990135  RH  036%=      5-min Rain = 0
KBY1 162306Z 15004KT 30/14 A2996 RMK A01 T02990136  RH  037%=      5-min Rain = 0
KBY1 162307Z 16005KT 30/14 A2995 RMK A01 T02990135  RH  037%=      5-min Rain = 0
KBY1 162308Z 10005KT 30/14 A2995 RMK A01 T02990136  RH  037%=      5-min Rain = 0
KBY1 162309Z 11007KT 30/14 A2995 RMK A01 T03000136  RH  037%=      5-min Rain = 0
KBY1 162310Z 14007KT 30/13 A2995 RMK A01 T03010134  RH  036%=      5-min Rain = 0
KBY1 162311Z 17007KT 30/14 A2995 RMK A01 T03000135  RH  037%=      5-min Rain = 0
KBY1 162312Z 16009KT 30/14 A2995 RMK A01 T03000136  RH  037%=      5-min Rain = 0
KBY1 162313Z 18007KT 30/14 A2995 RMK A01 T03010135  RH  036%=      5-min Rain = 0
KBY1 162314Z 17009G14KT 30/13 A2995 RMK A01 T03020134  RH  036%=      5-min Rain = 0
KBY1 162315Z 16010KT 30/13 A2995 RMK A01 T03020133  RH  036%=      5-min Rain = 0
KBY1 162316Z 16009KT 30/13 A2995 RMK A01 T02990132  RH  036%=      5-min Rain = 0
KBY1 162317Z 17008KT 30/13 A2995 RMK A01 T02980132  RH  036%=      5-min Rain = 0
KBY1 162318Z 18009KT 30/13 A2995 RMK A01 T02960131  RH  036%=      5-min Rain = 0
KBY1 162319Z 18006KT 30/13 A2995 RMK A01 T02960129  RH  036%=      5-min Rain = 0
KBY1 162320Z 16005KT 30/13 A2995 RMK A01 T02950130  RH  036%=      5-min Rain = 0
KBY1 162321Z 19004KT 30/13 A2995 RMK A01 T02950130  RH  036%=      5-min Rain = 0
KBY1 162322Z 22005KT 30/13 A2995 RMK A01 T02960131  RH  036%=      5-min Rain = 0
KBY1 162323Z 20006KT 30/13 A2995 RMK A01 T02980131  RH  036%=      5-min Rain = 0
KBY1 162324Z 19006KT 30/13 A2995 RMK A01 T02980131  RH  036%=      5-min Rain = 0
KBY1 162325Z 19004KT 30/13 A2995 RMK A01 T02980131  RH  036%=      5-min Rain = 0
KBY1 162326Z 16003KT 30/13 A2995 RMK A01 T02970133  RH  036%=      5-min Rain = 0
KBY1 162327Z 14005KT 30/13 A2995 RMK A01 T02970134  RH  037%=      5-min Rain = 0
KBY1 162328Z 11007KT 30/13 A2995 RMK A01 T02980133  RH  036%=      5-min Rain = 0
KBY1 162329Z 12005KT 30/13 A2995 RMK A01 T02980133  RH  036%=      5-min Rain = 0
KBY1 162330Z 13002KT 30/13 A2995 RMK A01 T02980132  RH  036%=      5-min Rain = 0
KBY1 162331Z 08003KT 30/13 A2995 RMK A01 T02970133  RH  037%=      5-min Rain = 0
KBY1 162332Z 11004KT 30/13 A2995 RMK A01 T02980133  RH  036%=      5-min Rain = 0
KBY1 162333Z 12007KT 30/13 A2995 RMK A01 T02990133  RH  036%=      5-min Rain = 0
KBY1 162334Z 14008KT 30/13 A2995 RMK A01 T02990133  RH  036%=      5-min Rain = 0
KBY1 162335Z 15007KT 30/13 A2995 RMK A01 T02990133  RH  036%=      5-min Rain = 0
KBY1 162336Z 15008KT 30/13 A2995 RMK A01 T03000134  RH  036%=      5-min Rain = 0
KBY1 162337Z 16008KT 30/13 A2995 RMK A01 T03010134  RH  036%=      5-min Rain = 0
KBY1 162338Z 17007KT 30/13 A2995 RMK A01 T03010133  RH  036%=      5-min Rain = 0
KBY1 162339Z 18007KT 30/13 A2995 RMK A01 T03010133  RH  036%=      5-min Rain = 0
KBY1 162340Z 18007KT 30/13 A2995 RMK A01 T03010132  RH  036%=      5-min Rain = 0
KBY1 162341Z 19005KT 30/13 A2995 RMK A01 T03000130  RH  035%=      5-min Rain = 0
KBY1 162342Z 19007KT 30/13 A2995 RMK A01 T02990131  RH  036%=      5-min Rain = 0
KBY1 162343Z 20005KT 30/13 A2995 RMK A01 T02990129  RH  035%=      5-min Rain = 0
KBY1 162344Z 21005KT 30/13 A2995 RMK A01 T02980129  RH  035%=      5-min Rain = 0
KBY1 162345Z 21006KT 30/13 A2995 RMK A01 T02980131  RH  036%=      5-min Rain = 0
KBY1 162346Z 23007KT 30/13 A2994 RMK A01 T02980131  RH  036%=      5-min Rain = 0
KBY1 162347Z 24004KT 30/13 A2994 RMK A01 T02980130  RH  035%=      5-min Rain = 0
KBY1 162348Z 22007KT 30/13 A2994 RMK A01 T02990131  RH  036%=      5-min Rain = 0
KBY1 162349Z 20005KT 30/13 A2994 RMK A01 T02990131  RH  036%=      5-min Rain = 0
KBY1 162350Z 22004KT 30/13 A2994 RMK A01 T02990131  RH  036%=      5-min Rain = 0
KBY1 162351Z 20003KT 30/13 A2994 RMK A01 T02980131  RH  036%=      5-min Rain = 0
KBY1 162352Z 17007KT 30/13 A2994 RMK A01 T02990132  RH  036%=      5-min Rain = 0
KBY1 162353Z 19008KT 30/13 A2994 RMK A01 T02990131  RH  036%=      5-min Rain = 0
KBY1 162354Z 20006KT 30/13 A2994 RMK A01 T02990133  RH  036%=      5-min Rain = 0
KBY1 162355Z 20007KT 30/13 A2994 RMK A01 T03000131  RH  036%=      5-min Rain = 0
KBY1 162356Z 19007KT 30/13 A2994 RMK A01 T03000129  RH  035%=      5-min Rain = 0
KBY1 162357Z 19007KT 30/13 A2994 RMK A01 T03000128  RH  035%=      5-min Rain = 0
KBY1 162358Z 19006KT 30/13 A2994 RMK A01 T02990127  RH  035%=      5-min Rain = 0
KBY1 162359Z 19007KT 30/13 A2994 RMK A01 T02990128  RH  035%=      5-min Rain = 0
KBY1 170000Z 20007KT 30/13 A2994 RMK A01 T02990129  RH  035%=      5-min Rain = 0
KBY1 170001Z 19006KT 30/13 A2994 RMK A01 T02980128  RH  035%=      5-min Rain = 0
KBY1 170002Z 20006KT 30/13 A2994 RMK A01 T02980127  RH  035%=      5-min Rain = 0
KBY1 170003Z 19004KT 30/13 A2994 RMK A01 T02980130  RH  036%=      5-min Rain = 0
KBY1 170004Z 17006KT 30/13 A2994 RMK A01 T02980128  RH  035%=      5-min Rain = 0
KBY1 170005Z 16006KT 30/13 A2993 RMK A01 T02980129  RH  035%=      5-min Rain = 0
KBY1 170006Z 17005KT 30/13 A2993 RMK A01 T02980130  RH  036%=      5-min Rain = 0
KBY1 170007Z 15007KT 30/13 A2993 RMK A01 T02990129  RH  035%=      5-min Rain = 0
KBY1 170008Z 13005KT 30/13 A2993 RMK A01 T02990128  RH  035%=      5-min Rain = 0
KBY1 170009Z 19005KT 30/13 A2993 RMK A01 T02980130  RH  036%=      5-min Rain = 0
KBY1 170010Z 18009KT 30/13 A2993 RMK A01 T02980131  RH  036%=      5-min Rain = 0
KBY1 170011Z 18007KT 30/13 A2993 RMK A01 T02980130  RH  036%=      5-min Rain = 0
KBY1 170012Z 18005KT 30/13 A2993 RMK A01 T02970129  RH  036%=      5-min Rain = 0
KBY1 170013Z 19005KT 30/13 A2993 RMK A01 T02980131  RH  036%=      5-min Rain = 0
KBY1 170014Z 20005KT 30/13 A2993 RMK A01 T02980131  RH  036%=      5-min Rain = 0
KBY1 170015Z 20005KT 30/13 A2993 RMK A01 T02980130  RH  036%=      5-min Rain = 0
KBY1 170016Z 20006KT 30/13 A2993 RMK A01 T02980130  RH  036%=      5-min Rain = 0
KBY1 170017Z 20006KT 30/13 A2993 RMK A01 T02980130  RH  036%=      5-min Rain = 0
KBY1 170018Z 17004KT 30/13 A2993 RMK A01 T02980131  RH  036%=      5-min Rain = 0
KBY1 170019Z 19003KT 30/13 A2993 RMK A01 T02980130  RH  036%=      5-min Rain = 0
KBY1 170020Z 17006KT 30/13 A2993 RMK A01 T02980130  RH  036%=      5-min Rain = 0
KBY1 170021Z 15005KT 30/13 A2993 RMK A01 T02980131  RH  036%=      5-min Rain = 0
KBY1 170022Z 14005KT 30/13 A2993 RMK A01 T02980132  RH  036%=      5-min Rain = 0
KBY1 170023Z 16007KT 30/13 A2993 RMK A01 T02990131  RH  036%=      5-min Rain = 0
KBY1 170024Z 18007KT 30/13 A2993 RMK A01 T02990130  RH  035%=      5-min Rain = 0
KBY1 170025Z 20007KT 30/13 A2993 RMK A01 T02980129  RH  035%=      5-min Rain = 0
KBY1 170026Z 20007KT 30/13 A2993 RMK A01 T02980130  RH  036%=      5-min Rain = 0
KBY1 170027Z 21006KT 30/13 A2992 RMK A01 T02970129  RH  036%=      5-min Rain = 0
KBY1 170028Z 19003KT 30/13 A2992 RMK A01 T02970128  RH  035%=      5-min Rain = 0
KBY1 170029Z 16005KT 30/13 A2992 RMK A01 T02970129  RH  035%=      5-min Rain = 0
KBY1 170030Z 16005KT 30/13 A2992 RMK A01 T02970128  RH  035%=      5-min Rain = 0
KBY1 170031Z 19004KT 30/13 A2992 RMK A01 T02980130  RH  036%=      5-min Rain = 0
KBY1 170032Z 20005KT 30/13 A2992 RMK A01 T02980130  RH  036%=      5-min Rain = 0
KBY1 170033Z 20005KT 30/13 A2992 RMK A01 T02980129  RH  036%=      5-min Rain = 0
KBY1 170034Z 20006KT 30/13 A2992 RMK A01 T02980128  RH  035%=      5-min Rain = 0
KBY1 170035Z 21008KT 30/13 A2992 RMK A01 T02980128  RH  035%=      5-min Rain = 0
KBY1 170036Z 19006KT 30/13 A2992 RMK A01 T02970127  RH  035%=      5-min Rain = 0
KBY1 170037Z 17005KT 30/13 A2992 RMK A01 T02970127  RH  035%=      5-min Rain = 0
KBY1 170038Z 17006KT 30/13 A2992 RMK A01 T02970127  RH  035%=      5-min Rain = 0
KBY1 170039Z 17006KT 30/13 A2992 RMK A01 T02970127  RH  035%=      5-min Rain = 0
KBY1 170040Z 17006KT 30/13 A2992 RMK A01 T02970126  RH  035%=      5-min Rain = 0
KBY1 170041Z 17007KT 30/13 A2992 RMK A01 T02970126  RH  035%=      5-min Rain = 0
KBY1 170042Z 16007KT 30/12 A2992 RMK A01 T02970122  RH  034%=      5-min Rain = 0
KBY1 170043Z 17006KT 30/12 A2992 RMK A01 T02970124  RH  035%=      5-min Rain = 0
KBY1 170044Z 16005KT 30/12 A2992 RMK A01 T02970124  RH  034%=      5-min Rain = 0
KBY1 170045Z 16006KT 30/12 A2992 RMK A01 T02970124  RH  035%=      5-min Rain = 0
KBY1 170046Z 16006KT 30/12 A2992 RMK A01 T02970124  RH  034%=      5-min Rain = 0
KBY1 170047Z 16006KT 30/12 A2992 RMK A01 T02970123  RH  034%=      5-min Rain = 0
KBY1 170048Z 17004KT 30/12 A2992 RMK A01 T02960123  RH  034%=      5-min Rain = 0
KBY1 170049Z 18004KT 30/13 A2992 RMK A01 T02960126  RH  035%=      5-min Rain = 0
KBY1 170050Z 18003KT 30/12 A2992 RMK A01 T02960124  RH  035%=      5-min Rain = 0
KBY1 170051Z 17003KT 30/13 A2992 RMK A01 T02960125  RH  035%=      5-min Rain = 0
KBY1 170052Z 18003KT 30/13 A2992 RMK A01 T02960126  RH  035%=      5-min Rain = 0
KBY1 170053Z 17004KT 30/12 A2992 RMK A01 T02960124  RH  035%=      5-min Rain = 0
KBY1 170054Z 18004KT 30/12 A2992 RMK A01 T02960123  RH  034%=      5-min Rain = 0
KBY1 170055Z 16003KT 30/12 A2992 RMK A01 T02960123  RH  035%=      5-min Rain = 0
KBY1 170056Z 16004KT 30/13 A2992 RMK A01 T02950125  RH  035%=      5-min Rain = 0
KBY1 170057Z 17003KT 30/13 A2992 RMK A01 T02950126  RH  035%=      5-min Rain = 0
KBY1 170058Z 16003KT 30/13 A2992 RMK A01 T02950125  RH  035%=      5-min Rain = 0
KBY1 170059Z 16006KT 29/12 A2992 RMK A01 T02940122  RH  034%=      5-min Rain = 0
KBY1 170100Z 18005KT 29/12 A2991 RMK A01 T02940118  RH  034%=      5-min Rain = 0
KBY1 170101Z 17004KT 29/12 A2991 RMK A01 T02940119  RH  034%=      5-min Rain = 0
KBY1 170102Z 17006KT 29/12 A2991 RMK A01 T02940120  RH  034%=      5-min Rain = 0
KBY1 170103Z 18006KT 29/12 A2991 RMK A01 T02940119  RH  034%=      5-min Rain = 0
KBY1 170104Z 16004KT 29/12 A2991 RMK A01 T02930120  RH  034%=      5-min Rain = 0
KBY1 170105Z 18004KT 29/12 A2991 RMK A01 T02930122  RH  035%=      5-min Rain = 0
KBY1 170106Z 17004KT 29/12 A2991 RMK A01 T02920122  RH  035%=      5-min Rain = 0
KBY1 170107Z 17004KT 29/12 A2991 RMK A01 T02910122  RH  035%=      5-min Rain = 0
KBY1 170108Z 16003KT 29/12 A2991 RMK A01 T02900121  RH  035%=      5-min Rain = 0
KBY1 170109Z 17003KT 29/12 A2991 RMK A01 T02900122  RH  036%=      5-min Rain = 0
KBY1 170110Z 17003KT 29/12 A2991 RMK A01 T02890123  RH  036%=      5-min Rain = 0
KBY1 170111Z 16004KT 29/12 A2991 RMK A01 T02880120  RH  035%=      5-min Rain = 0
KBY1 170112Z 15004KT 29/12 A2991 RMK A01 T02880121  RH  035%=      5-min Rain = 0
KBY1 170113Z 15002KT 29/12 A2991 RMK A01 T02880122  RH  036%=      5-min Rain = 0
KBY1 170114Z 15003KT 29/12 A2991 RMK A01 T02880123  RH  036%=      5-min Rain = 0
KBY1 170115Z 14004KT 29/12 A2991 RMK A01 T02870122  RH  036%=      5-min Rain = 0
KBY1 170116Z 14004KT 29/12 A2991 RMK A01 T02870122  RH  036%=      5-min Rain = 0
KBY1 170117Z 15004KT 29/12 A2991 RMK A01 T02860121  RH  036%=      5-min Rain = 0
KBY1 170118Z 15004KT 28/12 A2991 RMK A01 T02840121  RH  036%=      5-min Rain = 0
KBY1 170119Z 15006KT 28/12 A2991 RMK A01 T02840120  RH  036%=      5-min Rain = 0
KBY1 170120Z 16006KT 28/12 A2991 RMK A01 T02830120  RH  036%=      5-min Rain = 0
KBY1 170121Z 15005KT 28/12 A2991 RMK A01 T02830118  RH  036%=      5-min Rain = 0
KBY1 170122Z 15005KT 28/12 A2991 RMK A01 T02830118  RH  036%=      5-min Rain = 0
KBY1 170123Z 15004KT 28/12 A2991 RMK A01 T02830119  RH  036%=      5-min Rain = 0
KBY1 170124Z 14004KT 28/12 A2991 RMK A01 T02830120  RH  036%=      5-min Rain = 0
KBY1 170125Z 15003KT 28/12 A2991 RMK A01 T02820120  RH  037%=      5-min Rain = 0
KBY1 170126Z 15004KT 28/12 A2991 RMK A01 T02810119  RH  037%=      5-min Rain = 0
KBY1 170127Z 14004KT 28/12 A2991 RMK A01 T02800119  RH  037%=      5-min Rain = 0
KBY1 170128Z 13005KT 28/12 A2991 RMK A01 T02800120  RH  037%=      5-min Rain = 0
KBY1 170129Z 13005KT 28/12 A2992 RMK A01 T02790119  RH  037%=      5-min Rain = 0
KBY1 170130Z 13004KT 28/12 A2992 RMK A01 T02790119  RH  037%=      5-min Rain = 0
KBY1 170131Z 13004KT 28/12 A2992 RMK A01 T02780119  RH  037%=      5-min Rain = 0
KBY1 170132Z 13004KT 28/12 A2992 RMK A01 T02770119  RH  037%=      5-min Rain = 0
KBY1 170133Z 13004KT 28/12 A2992 RMK A01 T02760119  RH  038%=      5-min Rain = 0
KBY1 170134Z 12004KT 28/12 A2992 RMK A01 T02750118  RH  038%=      5-min Rain = 0
KBY1 170135Z 12004KT 27/12 A2992 RMK A01 T02740119  RH  038%=      5-min Rain = 0
KBY1 170136Z 12004KT 27/12 A2992 RMK A01 T02730119  RH  038%=      5-min Rain = 0
KBY1 170137Z 12004KT 27/12 A2992 RMK A01 T02730119  RH  038%=      5-min Rain = 0
KBY1 170138Z 12004KT 27/12 A2992 RMK A01 T02720119  RH  038%=      5-min Rain = 0
KBY1 170139Z 13004KT 27/12 A2992 RMK A01 T02720119  RH  039%=      5-min Rain = 0
KBY1 170140Z 13004KT 27/12 A2992 RMK A01 T02710118  RH  039%=      5-min Rain = 0
KBY1 170141Z 13003KT 27/12 A2992 RMK A01 T02700118  RH  039%=      5-min Rain = 0
KBY1 170142Z 13003KT 27/12 A2992 RMK A01 T02690118  RH  039%=      5-min Rain = 0
KBY1 170143Z 13003KT 27/12 A2992 RMK A01 T02690118  RH  039%=      5-min Rain = 0
KBY1 170144Z 14003KT 27/12 A2992 RMK A01 T02680118  RH  039%=      5-min Rain = 0
KBY1 170145Z 13003KT 27/12 A2992 RMK A01 T02670118  RH  039%=      5-min Rain = 0
KBY1 170146Z 14003KT 27/12 A2992 RMK A01 T02670118  RH  040%=      5-min Rain = 0
KBY1 170147Z 14003KT 27/12 A2992 RMK A01 T02660117  RH  040%=      5-min Rain = 0
KBY1 170148Z 14003KT 27/12 A2992 RMK A01 T02650117  RH  040%=      5-min Rain = 0
KBY1 170149Z 14003KT 27/12 A2992 RMK A01 T02650118  RH  040%=      5-min Rain = 0
KBY1 170150Z 14003KT 27/12 A2992 RMK A01 T02650118  RH  040%=      5-min Rain = 0
KBY1 170151Z 14003KT 26/12 A2992 RMK A01 T02640118  RH  040%=      5-min Rain = 0
KBY1 170152Z 15003KT 26/12 A2992 RMK A01 T02630118  RH  040%=      5-min Rain = 0
KBY1 170153Z 15003KT 26/12 A2992 RMK A01 T02620118  RH  041%=      5-min Rain = 0
KBY1 170154Z 15003KT 26/12 A2992 RMK A01 T02620118  RH  041%=      5-min Rain = 0
KBY1 170155Z 16003KT 26/12 A2992 RMK A01 T02610117  RH  041%=      5-min Rain = 0
KBY1 170156Z 16003KT 26/12 A2992 RMK A01 T02610116  RH  040%=      5-min Rain = 0
KBY1 170157Z 16003KT 26/12 A2992 RMK A01 T02610115  RH  040%=      5-min Rain = 0
KBY1 170158Z 17003KT 26/12 A2992 RMK A01 T02610115  RH  040%=      5-min Rain = 0
KBY1 170159Z 16003KT 26/11 A2992 RMK A01 T02610114  RH  040%=      5-min Rain = 0
KBY1 170200Z 16003KT 26/11 A2992 RMK A01 T02610113  RH  040%=      5-min Rain = 0
KBY1 170201Z 16003KT 26/11 A2992 RMK A01 T02620113  RH  039%=      5-min Rain = 0
KBY1 170202Z 17003KT 26/11 A2992 RMK A01 T02620112  RH  039%=      5-min Rain = 0
KBY1 170203Z 17003KT 26/11 A2992 RMK A01 T02620111  RH  039%=      5-min Rain = 0
KBY1 170204Z 17004KT 26/11 A2992 RMK A01 T02620111  RH  039%=      5-min Rain = 0
KBY1 170205Z 18004KT 26/11 A2992 RMK A01 T02620110  RH  039%=      5-min Rain = 0
KBY1 170206Z 18004KT 26/11 A2992 RMK A01 T02610110  RH  039%=      5-min Rain = 0
KBY1 170207Z 18004KT 26/11 A2992 RMK A01 T02600111  RH  039%=      5-min Rain = 0
KBY1 170208Z 18004KT 26/11 A2992 RMK A01 T02580111  RH  040%=      5-min Rain = 0
KBY1 170209Z 18004KT 26/11 A2992 RMK A01 T02560111  RH  040%=      5-min Rain = 0
KBY1 170210Z 18004KT 26/11 A2992 RMK A01 T02550110  RH  040%=      5-min Rain = 0
KBY1 170211Z 18004KT 25/11 A2992 RMK A01 T02540109  RH  040%=      5-min Rain = 0
KBY1 170212Z 18004KT 25/11 A2992 RMK A01 T02540109  RH  040%=      5-min Rain = 0
KBY1 170213Z 18004KT 25/11 A2992 RMK A01 T02540109  RH  040%=      5-min Rain = 0
KBY1 170214Z 18004KT 25/11 A2992 RMK A01 T02540109  RH  040%=      5-min Rain = 0
KBY1 170215Z 17004KT 25/11 A2992 RMK A01 T02530108  RH  040%=      5-min Rain = 0
KBY1 170216Z 17004KT 25/11 A2992 RMK A01 T02530108  RH  040%=      5-min Rain = 0
KBY1 170217Z 17004KT 25/11 A2992 RMK A01 T02530108  RH  040%=      5-min Rain = 0
KBY1 170218Z 16004KT 25/11 A2992 RMK A01 T02520108  RH  040%=      5-min Rain = 0
KBY1 170219Z 15003KT 25/11 A2992 RMK A01 T02520108  RH  041%=      5-min Rain = 0
KBY1 170220Z 13003KT 25/11 A2992 RMK A01 T02500109  RH  041%=      5-min Rain = 0
KBY1 170221Z 07003KT 25/11 A2992 RMK A01 T02480110  RH  042%=      5-min Rain = 0
KBY1 170222Z 07005KT 24/11 A2992 RMK A01 T02440113  RH  044%=      5-min Rain = 0
KBY1 170223Z 06006KT 24/11 A2992 RMK A01 T02400114  RH  045%=      5-min Rain = 0
KBY1 170224Z 06006KT 24/11 A2992 RMK A01 T02380113  RH  046%=      5-min Rain = 0
KBY1 170225Z 06006KT 24/11 A2992 RMK A01 T02380113  RH  046%=      5-min Rain = 0
KBY1 170226Z 07006KT 24/12 A2992 RMK A01 T02390115  RH  046%=      5-min Rain = 0
KBY1 170227Z 09005KT 24/12 A2993 RMK A01 T02400117  RH  046%=      5-min Rain = 0
KBY1 170228Z 11005KT 24/12 A2993 RMK A01 T02410119  RH  046%=      5-min Rain = 0
KBY1 170229Z 10005KT 24/12 A2993 RMK A01 T02410121  RH  047%=      5-min Rain = 0
KBY1 170230Z 10006KT 24/12 A2993 RMK A01 T02390121  RH  047%=      5-min Rain = 0
KBY1 170231Z 11006KT 24/12 A2993 RMK A01 T02380119  RH  047%=      5-min Rain = 0
KBY1 170232Z 11008KT 24/12 A2993 RMK A01 T02390119  RH  047%=      5-min Rain = 0
KBY1 170233Z 11007KT 24/12 A2993 RMK A01 T02420119  RH  046%=      5-min Rain = 0
KBY1 170234Z 11007KT 24/12 A2993 RMK A01 T02430119  RH  046%=      5-min Rain = 0
KBY1 170235Z 10006KT 24/12 A2993 RMK A01 T02430119  RH  046%=      5-min Rain = 0
KBY1 170236Z 11006KT 24/12 A2993 RMK A01 T02420119  RH  046%=      5-min Rain = 0
KBY1 170237Z 10006KT 24/12 A2993 RMK A01 T02410119  RH  046%=      5-min Rain = 0
KBY1 170238Z 11006KT 24/12 A2993 RMK A01 T02400119  RH  046%=      5-min Rain = 0
KBY1 170239Z 10005KT 24/12 A2993 RMK A01 T02400118  RH  046%=      5-min Rain = 0
KBY1 170240Z 10005KT 24/12 A2993 RMK A01 T02400118  RH  046%=      5-min Rain = 0
KBY1 170241Z 09005KT 24/12 A2993 RMK A01 T02390118  RH  047%=      5-min Rain = 0
KBY1 170242Z 10005KT 24/12 A2993 RMK A01 T02380117  RH  047%=      5-min Rain = 0
KBY1 170243Z 10005KT 24/12 A2993 RMK A01 T02370117  RH  047%=      5-min Rain = 0
KBY1 170244Z 10005KT 24/12 A2993 RMK A01 T02360117  RH  047%=      5-min Rain = 0
KBY1 170245Z 10005KT 24/12 A2993 RMK A01 T02360117  RH  047%=      5-min Rain = 0
KBY1 170246Z 10005KT 24/12 A2993 RMK A01 T02360117  RH  047%=      5-min Rain = 0
KBY1 170247Z 11005KT 24/12 A2993 RMK A01 T02360118  RH  047%=      5-min Rain = 0
KBY1 170248Z 11005KT 24/12 A2993 RMK A01 T02370118  RH  047%=      5-min Rain = 0
KBY1 170249Z 11005KT 24/12 A2993 RMK A01 T02370118  RH  047%=      5-min Rain = 0
KBY1 170250Z 12004KT 24/12 A2993 RMK A01 T02370118  RH  047%=      5-min Rain = 0
KBY1 170251Z 12004KT 24/12 A2993 RMK A01 T02370118  RH  047%=      5-min Rain = 0
KBY1 170252Z 12005KT 24/12 A2993 RMK A01 T02370119  RH  047%=      5-min Rain = 0
KBY1 170253Z 13005KT 24/12 A2993 RMK A01 T02370119  RH  047%=      5-min Rain = 0
KBY1 170254Z 13005KT 24/12 A2993 RMK A01 T02370119  RH  048%=      5-min Rain = 0
KBY1 170255Z 13005KT 24/12 A2994 RMK A01 T02360119  RH  048%=      5-min Rain = 0
KBY1 170256Z 13004KT 24/12 A2994 RMK A01 T02370119  RH  048%=      5-min Rain = 0
KBY1 170257Z 14004KT 24/12 A2994 RMK A01 T02360119  RH  048%=      5-min Rain = 0
KBY1 170258Z 14004KT 24/12 A2994 RMK A01 T02360119  RH  048%=      5-min Rain = 0
KBY1 170259Z 14004KT 24/12 A2994 RMK A01 T02360119  RH  048%=      5-min Rain = 0
KBY1 170300Z 14005KT 24/12 A2994 RMK A01 T02360119  RH  048%=      5-min Rain = 0
KBY1 170301Z 14004KT 24/12 A2994 RMK A01 T02360119  RH  048%=      5-min Rain = 0
KBY1 170302Z 14005KT 24/12 A2994 RMK A01 T02370119  RH  048%=      5-min Rain = 0
KBY1 170303Z 13005KT 24/12 A2994 RMK A01 T02370120  RH  048%=      5-min Rain = 0
KBY1 170304Z 13004KT 24/12 A2994 RMK A01 T02370120  RH  048%=      5-min Rain = 0
KBY1 170305Z 13004KT 24/12 A2994 RMK A01 T02370120  RH  048%=      5-min Rain = 0
KBY1 170306Z 13005KT 24/12 A2994 RMK A01 T02370120  RH  048%=      5-min Rain = 0
KBY1 170307Z 13005KT 24/12 A2994 RMK A01 T02370120  RH  048%=      5-min Rain = 0
KBY1 170308Z 13005KT 24/12 A2994 RMK A01 T02370121  RH  048%=      5-min Rain = 0
KBY1 170309Z 12004KT 24/12 A2994 RMK A01 T02370121  RH  048%=      5-min Rain = 0
KBY1 170310Z 12005KT 24/12 A2994 RMK A01 T02350120  RH  048%=      5-min Rain = 0
KBY1 170311Z 11005KT 24/12 A2995 RMK A01 T02350120  RH  049%=      5-min Rain = 0
KBY1 170312Z 11005KT 23/12 A2995 RMK A01 T02340120  RH  049%=      5-min Rain = 0
KBY1 170313Z 11005KT 23/12 A2995 RMK A01 T02330121  RH  049%=      5-min Rain = 0
KBY1 170314Z 11005KT 23/12 A2995 RMK A01 T02320121  RH  050%=      5-min Rain = 0
KBY1 170315Z 11005KT 23/12 A2995 RMK A01 T02310121  RH  050%=      5-min Rain = 0
KBY1 170316Z 11006KT 23/12 A2995 RMK A01 T02300121  RH  050%=      5-min Rain = 0
KBY1 170317Z 11006KT 23/12 A2995 RMK A01 T02300122  RH  051%=      5-min Rain = 0
KBY1 170318Z 11005KT 23/12 A2995 RMK A01 T02300122  RH  050%=      5-min Rain = 0
KBY1 170319Z 12006KT 23/12 A2995 RMK A01 T02310122  RH  050%=      5-min Rain = 0
KBY1 170320Z 12005KT 23/12 A2995 RMK A01 T02310122  RH  050%=      5-min Rain = 0
KBY1 170321Z 11005KT 23/12 A2995 RMK A01 T02320122  RH  050%=      5-min Rain = 0
KBY1 170322Z 12005KT 23/12 A2995 RMK A01 T02330123  RH  050%=      5-min Rain = 0
KBY1 170323Z 12006KT 23/12 A2995 RMK A01 T02330123  RH  050%=      5-min Rain = 0
KBY1 170324Z 12006KT 23/12 A2995 RMK A01 T02330122  RH  050%=      5-min Rain = 0
KBY1 170325Z 12006KT 24/12 A2995 RMK A01 T02350122  RH  049%=      5-min Rain = 0
KBY1 170326Z 12007KT 24/12 A2995 RMK A01 T02360122  RH  049%=      5-min Rain = 0
KBY1 170327Z 12007KT 24/12 A2995 RMK A01 T02370123  RH  049%=      5-min Rain = 0
KBY1 170328Z 12006KT 24/12 A2995 RMK A01 T02370122  RH  049%=      5-min Rain = 0
KBY1 170329Z 12007KT 24/12 A2995 RMK A01 T02380121  RH  048%=      5-min Rain = 0
KBY1 170330Z 12006KT 24/12 A2995 RMK A01 T02380121  RH  048%=      5-min Rain = 0
KBY1 170331Z 12006KT 24/12 A2995 RMK A01 T02380121  RH  048%=      5-min Rain = 0
KBY1 170332Z 12006KT 24/12 A2995 RMK A01 T02380121  RH  048%=      5-min Rain = 0
KBY1 170333Z 12007KT 24/12 A2996 RMK A01 T02380121  RH  048%=      5-min Rain = 0
KBY1 170334Z 12007KT 24/12 A2996 RMK A01 T02380121  RH  048%=      5-min Rain = 0
KBY1 170335Z 12006KT 24/12 A2996 RMK A01 T02390121  RH  048%=      5-min Rain = 0
KBY1 170336Z 12007KT 24/12 A2996 RMK A01 T02390121  RH  048%=      5-min Rain = 0
KBY1 170337Z 13006KT 24/12 A2996 RMK A01 T02390121  RH  047%=      5-min Rain = 0
KBY1 170338Z 12007KT 24/12 A2996 RMK A01 T02390121  RH  048%=      5-min Rain = 0
KBY1 170339Z 12007KT 24/12 A2996 RMK A01 T02390121  RH  047%=      5-min Rain = 0
KBY1 170340Z 13006KT 24/12 A2996 RMK A01 T02390121  RH  047%=      5-min Rain = 0
KBY1 170341Z 13010KT 24/12 A2996 RMK A01 T02390120  RH  047%=      5-min Rain = 0
KBY1 170342Z 13006KT 24/12 A2996 RMK A01 T02400120  RH  047%=      5-min Rain = 0
KBY1 170343Z 13007KT 24/12 A2996 RMK A01 T02400120  RH  047%=      5-min Rain = 0
KBY1 170344Z 14006KT 24/12 A2996 RMK A01 T02400120  RH  047%=      5-min Rain = 0
KBY1 170345Z 14006KT 24/12 A2996 RMK A01 T02400120  RH  047%=      5-min Rain = 0
KBY1 170346Z 14006KT 24/12 A2996 RMK A01 T02400120  RH  047%=      5-min Rain = 0
KBY1 170347Z 13007KT 24/12 A2996 RMK A01 T02400120  RH  047%=      5-min Rain = 0
KBY1 170348Z 13007KT 24/12 A2996 RMK A01 T02400120  RH  047%=      5-min Rain = 0
KBY1 170349Z 13008KT 24/12 A2996 RMK A01 T02400119  RH  047%=      5-min Rain = 0
KBY1 170350Z 13007KT 24/12 A2996 RMK A01 T02400119  RH  047%=      5-min Rain = 0
KBY1 170351Z 13007KT 24/12 A2996 RMK A01 T02400119  RH  047%=      5-min Rain = 0
KBY1 170352Z 12006KT 24/12 A2996 RMK A01 T02400119  RH  047%=      5-min Rain = 0
KBY1 170353Z 12006KT 24/12 A2996 RMK A01 T02390119  RH  047%=      5-min Rain = 0
KBY1 170354Z 12007KT 24/12 A2996 RMK A01 T02380119  RH  047%=      5-min Rain = 0
KBY1 170355Z 12008KT 24/12 A2996 RMK A01 T02380118  RH  047%=      5-min Rain = 0
KBY1 170356Z 11008KT 24/12 A2996 RMK A01 T02380119  RH  047%=      5-min Rain = 0
KBY1 170357Z 11006KT 24/12 A2996 RMK A01 T02370118  RH  047%=      5-min Rain = 0
KBY1 170358Z 11006KT 24/12 A2996 RMK A01 T02370118  RH  047%=      5-min Rain = 0
KBY1 170359Z 10007KT 24/12 A2996 RMK A01 T02370119  RH  047%=      5-min Rain = 0
KBY1 170400Z 10007KT 24/12 A2996 RMK A01 T02360118  RH  048%=      5-min Rain = 0
KBY1 170401Z 10007KT 24/12 A2996 RMK A01 T02350118  RH  048%=      5-min Rain = 0
KBY1 170402Z 10006KT 23/12 A2996 RMK A01 T02340118  RH  048%=      5-min Rain = 0
KBY1 170403Z 10007KT 23/12 A2996 RMK A01 T02320118  RH  048%=      5-min Rain = 0
KBY1 170404Z 10006KT 23/12 A2997 RMK A01 T02320118  RH  049%=      5-min Rain = 0
KBY1 170405Z 10005KT 23/12 A2997 RMK A01 T02310118  RH  049%=      5-min Rain = 0
KBY1 170406Z 09005KT 23/12 A2997 RMK A01 T02300118  RH  049%=      5-min Rain = 0
KBY1 170407Z 09006KT 23/12 A2997 RMK A01 T02280118  RH  050%=      5-min Rain = 0
KBY1 170408Z 08006KT 23/12 A2997 RMK A01 T02280118  RH  050%=      5-min Rain = 0
KBY1 170409Z 09006KT 23/12 A2997 RMK A01 T02270118  RH  050%=      5-min Rain = 0
KBY1 170410Z 08006KT 23/12 A2997 RMK A01 T02270118  RH  050%=      5-min Rain = 0
KBY1 170411Z 09007KT 23/12 A2996 RMK A01 T02260118  RH  050%=      5-min Rain = 0
KBY1 170412Z 09006KT 23/12 A2996 RMK A01 T02250118  RH  051%=      5-min Rain = 0
KBY1 170413Z 09006KT 23/12 A2997 RMK A01 T02250118  RH  051%=      5-min Rain = 0
KBY1 170414Z 09005KT 23/12 A2997 RMK A01 T02250117  RH  051%=      5-min Rain = 0
KBY1 170415Z 09006KT 23/12 A2997 RMK A01 T02250118  RH  051%=      5-min Rain = 0
KBY1 170416Z 09006KT 22/12 A2997 RMK A01 T02240117  RH  051%=      5-min Rain = 0
KBY1 170417Z 10006KT 23/12 A2997 RMK A01 T02250117  RH  050%=      5-min Rain = 0
KBY1 170418Z 09006KT 23/12 A2997 RMK A01 T02250117  RH  050%=      5-min Rain = 0
KBY1 170419Z 09005KT 23/12 A2997 RMK A01 T02250117  RH  050%=      5-min Rain = 0
KBY1 170420Z 09005KT 23/12 A2997 RMK A01 T02250117  RH  051%=      5-min Rain = 0
KBY1 170421Z 09005KT 22/12 A2997 RMK A01 T02240117  RH  051%=      5-min Rain = 0
KBY1 170422Z 08005KT 22/12 A2997 RMK A01 T02230117  RH  051%=      5-min Rain = 0
KBY1 170423Z 09005KT 22/12 A2997 RMK A01 T02220117  RH  051%=      5-min Rain = 0
KBY1 170424Z 09006KT 22/12 A2997 RMK A01 T02220117  RH  051%=      5-min Rain = 0
KBY1 170425Z 09006KT 22/12 A2997 RMK A01 T02210116  RH  051%=      5-min Rain = 0
KBY1 170426Z 08006KT 22/12 A2997 RMK A01 T02210116  RH  051%=      5-min Rain = 0
KBY1 170427Z 08006KT 22/12 A2997 RMK A01 T02210117  RH  052%=      5-min Rain = 0
KBY1 170428Z 08006KT 22/12 A2997 RMK A01 T02210117  RH  052%=      5-min Rain = 0
KBY1 170429Z 08006KT 22/12 A2997 RMK A01 T02210117  RH  052%=      5-min Rain = 0
KBY1 170430Z 08006KT 22/12 A2997 RMK A01 T02200117  RH  052%=      5-min Rain = 0
KBY1 170431Z 08007KT 22/12 A2997 RMK A01 T02190117  RH  052%=      5-min Rain = 0
KBY1 170432Z 08007KT 22/12 A2997 RMK A01 T02190116  RH  052%=      5-min Rain = 0
KBY1 170433Z 08008KT 22/12 A2997 RMK A01 T02200116  RH  052%=      5-min Rain = 0
KBY1 170434Z 08007KT 22/12 A2997 RMK A01 T02210117  RH  051%=      5-min Rain = 0
KBY1 170435Z 08007KT 22/12 A2997 RMK A01 T02220117  RH  051%=      5-min Rain = 0
KBY1 170436Z 08008KT 22/12 A2997 RMK A01 T02220116  RH  051%=      5-min Rain = 0
KBY1 170437Z 08007KT 22/12 A2997 RMK A01 T02220116  RH  051%=      5-min Rain = 0
KBY1 170438Z 09007KT 22/12 A2997 RMK A01 T02220116  RH  051%=      5-min Rain = 0
KBY1 170439Z 08007KT 22/12 A2997 RMK A01 T02220115  RH  051%=      5-min Rain = 0
KBY1 170440Z 09005KT 22/12 A2997 RMK A01 T02230116  RH  051%=      5-min Rain = 0
KBY1 170441Z 09005KT 22/12 A2997 RMK A01 T02220116  RH  051%=      5-min Rain = 0
KBY1 170442Z 10006KT 22/12 A2997 RMK A01 T02220116  RH  051%=      5-min Rain = 0
KBY1 170443Z 09006KT 22/12 A2997 RMK A01 T02220115  RH  051%=      5-min Rain = 0
KBY1 170444Z 10005KT 22/12 A2997 RMK A01 T02220115  RH  051%=      5-min Rain = 0
KBY1 170445Z 10006KT 22/12 A2997 RMK A01 T02210115  RH  051%=      5-min Rain = 0
KBY1 170446Z 10006KT 22/12 A2997 RMK A01 T02210115  RH  051%=      5-min Rain = 0
KBY1 170447Z 10007KT 22/12 A2997 RMK A01 T02210115  RH  051%=      5-min Rain = 0
KBY1 170448Z 10006KT 22/12 A2997 RMK A01 T02200115  RH  051%=      5-min Rain = 0
KBY1 170449Z 10007KT 22/12 A2997 RMK A01 T02200115  RH  051%=      5-min Rain = 0
KBY1 170450Z 09007KT 22/12 A2997 RMK A01 T02190115  RH  051%=      5-min Rain = 0
KBY1 170451Z 09006KT 22/12 A2997 RMK A01 T02190115  RH  052%=      5-min Rain = 0
KBY1 170452Z 09007KT 22/12 A2997 RMK A01 T02180115  RH  052%=      5-min Rain = 0
KBY1 170453Z 09006KT 22/12 A2997 RMK A01 T02170116  RH  052%=      5-min Rain = 0
KBY1 170454Z 09006KT 22/12 A2997 RMK A01 T02170115  RH  052%=      5-min Rain = 0
KBY1 170455Z 10007KT 22/12 A2998 RMK A01 T02170115  RH  052%=      5-min Rain = 0
KBY1 170456Z 10008KT 22/11 A2998 RMK A01 T02180114  RH  052%=      5-min Rain = 0
KBY1 170457Z 10007KT 22/11 A2998 RMK A01 T02190114  RH  051%=      5-min Rain = 0
KBY1 170458Z 10007KT 22/11 A2998 RMK A01 T02190114  RH  051%=      5-min Rain = 0
KBY1 170459Z 10006KT 22/11 A2998 RMK A01 T02190114  RH  051%=      5-min Rain = 0

Page generated in 0.1416 seconds.